Time,TemperatureF,DewpointF,PressureIn,WindDirection,WindDirectionDegrees,WindSpeedMPH,WindSpeedGustMPH,Humidity,HourlyPrecipIn,Conditions,Clouds,dailyrainin,SoftwareType,DateUTC
2013-01-14 00:02:00,61.1,60.2,29.97,SW,234,0.0,0.0,97,0.12,,,1.47,Wunderground v.1.15,2013-01-14 05:02:00,
2013-01-14 00:07:00,61.1,60.0,29.98,SW,234,0.0,0.0,96,0.22,,,0.01,Wunderground v.1.15,2013-01-14 05:07:00,
2013-01-14 00:08:00,61.1,60.0,29.98,SW,234,0.0,0.0,96,0.22,,,0.01,Wunderground v.1.15,2013-01-14 05:08:00,
2013-01-14 00:10:00,61.1,60.0,29.98,SW,234,0.0,0.0,96,0.12,,,0.01,Wunderground v.1.15,2013-01-14 05:10:00,
2013-01-14 00:13:00,61.1,60.0,29.98,SW,234,0.0,0.0,96,0.10,,,0.02,Wunderground v.1.15,2013-01-14 05:13:00,
2013-01-14 00:14:00,61.1,60.0,29.98,SW,234,0.0,0.0,96,0.10,,,0.02,Wunderground v.1.15,2013-01-14 05:14:00,
2013-01-14 00:16:00,61.1,60.0,29.97,SW,234,0.0,0.0,96,0.10,,,0.02,Wunderground v.1.15,2013-01-14 05:16:00,
2013-01-14 00:20:00,61.1,60.2,29.98,SW,234,0.0,0.0,97,0.09,,,0.03,Wunderground v.1.15,2013-01-14 05:20:00,
2013-01-14 00:21:00,61.1,60.2,29.99,SW,234,1.0,1.0,97,0.09,,,0.03,Wunderground v.1.15,2013-01-14 05:21:00,
2013-01-14 00:22:00,61.1,60.0,29.99,WNW,294,3.0,3.0,96,0.09,,,0.03,Wunderground v.1.15,2013-01-14 05:22:00,
2013-01-14 00:23:00,60.9,59.8,29.99,WNW,294,2.0,3.0,96,0.09,,,0.03,Wunderground v.1.15,2013-01-14 05:23:00,
2013-01-14 00:29:00,59.1,57.4,29.99,NW,315,2.0,5.0,94,0.06,,,0.03,Wunderground v.1.15,2013-01-14 05:29:00,
2013-01-14 00:30:00,59.0,57.3,29.99,NW,314,1.0,2.0,94,0.05,,,0.03,Wunderground v.1.15,2013-01-14 05:30:00,
2013-01-14 00:34:00,58.0,56.3,29.99,NW,314,2.0,4.0,94,0.05,,,0.04,Wunderground v.1.15,2013-01-14 05:34:00,
2013-01-14 00:36:00,57.7,56.0,29.99,NW,315,1.0,4.0,94,0.05,,,0.04,Wunderground v.1.15,2013-01-14 05:36:00,
2013-01-14 00:40:00,57.1,55.7,29.99,NW,311,2.0,2.0,95,0.05,,,0.04,Wunderground v.1.15,2013-01-14 05:40:00,
2013-01-14 00:41:00,57.1,55.7,29.99,NW,311,1.0,2.0,95,0.05,,,0.04,Wunderground v.1.15,2013-01-14 05:41:00,
2013-01-14 00:45:00,56.7,55.3,29.99,NNE,15,0.0,2.0,95,0.04,,,0.04,Wunderground v.1.15,2013-01-14 05:45:00,
2013-01-14 00:48:00,56.6,55.2,30.00,NE,53,4.0,4.0,95,0.00,,,0.04,Wunderground v.1.15,2013-01-14 05:48:00,
2013-01-14 00:51:00,56.3,54.9,30.01,NE,56,2.0,2.0,95,0.00,,,0.04,Wunderground v.1.15,2013-01-14 05:51:00,
2013-01-14 00:55:00,56.1,54.7,30.00,SSE,154,3.0,4.0,95,0.00,,,0.04,Wunderground v.1.15,2013-01-14 05:55:00,
2013-01-14 00:56:00,56.0,54.6,30.00,SSE,155,2.0,4.0,95,0.00,,,0.04,Wunderground v.1.15,2013-01-14 05:56:00,
2013-01-14 01:00:00,55.9,54.8,30.01,SSE,155,2.0,2.0,96,0.00,,,0.04,Wunderground v.1.15,2013-01-14 06:00:00,
2013-01-14 01:01:00,55.9,54.8,30.01,SSE,155,1.0,2.0,96,0.00,,,0.05,Wunderground v.1.15,2013-01-14 06:01:00,
2013-01-14 01:04:00,55.7,54.3,30.00,SSE,155,0.0,2.0,95,0.00,,,0.05,Wunderground v.1.15,2013-01-14 06:04:00,
2013-01-14 01:07:00,55.6,54.5,30.00,SSE,155,0.0,2.0,96,0.70,,,0.07,Wunderground v.1.15,2013-01-14 06:07:00,
2013-01-14 01:12:00,55.4,54.3,30.00,SSE,164,1.0,1.0,96,0.11,,,0.07,Wunderground v.1.15,2013-01-14 06:12:00,
2013-01-14 01:13:00,55.4,54.3,30.00,SSE,165,2.0,2.0,96,0.09,,,0.07,Wunderground v.1.15,2013-01-14 06:13:00,
2013-01-14 01:15:00,55.3,54.2,30.00,South,169,1.0,2.0,96,0.07,,,0.07,Wunderground v.1.15,2013-01-14 06:15:00,
2013-01-14 01:17:00,55.1,54.0,30.00,SSW,206,2.0,2.0,96,0.06,,,0.07,Wunderground v.1.15,2013-01-14 06:17:00,
2013-01-14 01:21:00,54.7,53.3,30.01,WSW,242,2.0,4.0,95,0.05,,,0.08,Wunderground v.1.15,2013-01-14 06:21:00,
2013-01-14 01:26:00,54.2,52.8,30.01,WSW,242,2.0,4.0,95,0.05,,,0.08,Wunderground v.1.15,2013-01-14 06:26:00,
2013-01-14 01:27:00,54.1,52.7,30.01,WSW,242,2.0,4.0,95,0.05,,,0.08,Wunderground v.1.15,2013-01-14 06:27:00,
2013-01-14 01:33:00,53.5,52.1,30.01,WSW,241,2.0,2.0,95,0.04,,,0.08,Wunderground v.1.15,2013-01-14 06:33:00,
2013-01-14 01:34:00,53.4,52.0,30.01,WSW,242,1.0,2.0,95,0.04,,,0.08,Wunderground v.1.15,2013-01-14 06:34:00,
2013-01-14 01:40:00,52.9,51.5,30.01,WSW,242,1.0,1.0,95,0.00,,,0.08,Wunderground v.1.15,2013-01-14 06:40:00,
2013-01-14 01:42:00,52.8,51.4,30.02,WSW,243,1.0,1.0,95,0.00,,,0.08,Wunderground v.1.15,2013-01-14 06:42:00,
2013-01-14 01:46:00,52.2,50.8,30.03,WSW,257,2.0,3.0,95,0.00,,,0.08,Wunderground v.1.15,2013-01-14 06:46:00,
2013-01-14 01:48:00,52.1,50.7,30.02,WSW,257,2.0,3.0,95,0.00,,,0.08,Wunderground v.1.15,2013-01-14 06:48:00,
2013-01-14 01:54:00,51.4,50.0,30.02,West,278,3.0,3.0,95,0.22,,,0.11,Wunderground v.1.15,2013-01-14 06:54:00,
2013-01-14 01:55:00,51.4,50.0,30.02,West,278,3.0,3.0,95,0.22,,,0.11,Wunderground v.1.15,2013-01-14 06:55:00,
2013-01-14 02:00:00,50.8,49.4,30.03,West,278,1.0,2.0,95,0.09,,,0.11,Wunderground v.1.15,2013-01-14 07:00:00,
2013-01-14 02:05:00,50.3,48.9,30.03,West,277,2.0,4.0,95,0.05,,,0.11,Wunderground v.1.15,2013-01-14 07:05:00,
2013-01-14 02:06:00,50.3,48.9,30.03,West,278,2.0,4.0,95,0.05,,,0.11,Wunderground v.1.15,2013-01-14 07:06:00,
2013-01-14 02:10:00,50.0,48.6,30.04,West,277,0.0,1.0,95,0.04,,,0.12,Wunderground v.1.15,2013-01-14 07:10:00,
2013-01-14 02:11:00,49.9,48.5,30.04,West,277,0.0,1.0,95,0.04,,,0.12,Wunderground v.1.15,2013-01-14 07:11:00,
2013-01-14 02:15:00,49.6,48.2,30.04,West,278,0.0,3.0,95,0.04,,,0.12,Wunderground v.1.15,2013-01-14 07:15:00,
2013-01-14 02:16:00,49.5,48.1,30.05,West,278,1.0,3.0,95,0.04,,,0.12,Wunderground v.1.15,2013-01-14 07:16:00,
2013-01-14 02:21:00,49.2,47.8,30.04,West,278,0.0,0.0,95,0.04,,,0.12,Wunderground v.1.15,2013-01-14 07:21:00,
2013-01-14 02:22:00,49.2,47.8,30.04,West,277,0.0,1.0,95,0.04,,,0.12,Wunderground v.1.15,2013-01-14 07:22:00,
2013-01-14 02:26:00,49.0,47.6,30.04,West,278,0.0,2.0,95,0.04,,,0.12,Wunderground v.1.15,2013-01-14 07:26:00,
2013-01-14 02:27:00,48.9,47.5,30.04,West,278,0.0,3.0,95,0.00,,,0.13,Wunderground v.1.15,2013-01-14 07:27:00,
2013-01-14 02:31:00,48.5,46.9,30.04,West,276,0.0,1.0,94,0.00,,,0.13,Wunderground v.1.15,2013-01-14 07:31:00,
2013-01-14 02:32:00,48.5,46.9,30.04,West,277,0.0,1.0,94,0.00,,,0.13,Wunderground v.1.15,2013-01-14 07:32:00,
2013-01-14 02:36:00,48.1,46.5,30.04,West,280,1.0,3.0,94,0.00,,,0.13,Wunderground v.1.15,2013-01-14 07:36:00,
2013-01-14 02:37:00,48.0,46.4,30.04,West,280,0.0,3.0,94,0.00,,,0.13,Wunderground v.1.15,2013-01-14 07:37:00,
2013-01-14 02:38:00,47.9,46.3,30.04,West,280,0.0,3.0,94,0.00,,,0.13,Wunderground v.1.15,2013-01-14 07:38:00,
2013-01-14 02:41:00,47.8,46.2,30.05,West,280,0.0,1.0,94,0.00,,,0.13,Wunderground v.1.15,2013-01-14 07:41:00,
2013-01-14 02:42:00,47.8,46.2,30.05,West,280,0.0,1.0,94,0.00,,,0.13,Wunderground v.1.15,2013-01-14 07:42:00,
2013-01-14 02:45:00,47.7,46.1,30.05,West,280,0.0,1.0,94,0.00,,,0.13,Wunderground v.1.15,2013-01-14 07:45:00,
2013-01-14 02:46:00,47.7,46.3,30.05,West,280,0.0,1.0,95,0.00,,,0.13,Wunderground v.1.15,2013-01-14 07:46:00,
2013-01-14 02:47:00,47.7,46.3,30.05,West,280,0.0,1.0,95,0.00,,,0.13,Wunderground v.1.15,2013-01-14 07:47:00,
2013-01-14 02:49:00,47.6,46.2,30.05,West,280,0.0,1.0,95,0.00,,,0.13,Wunderground v.1.15,2013-01-14 07:49:00,
2013-01-14 02:50:00,47.6,46.2,30.04,West,280,0.0,0.0,95,0.00,,,0.14,Wunderground v.1.15,2013-01-14 07:50:00,
2013-01-14 02:51:00,47.6,46.2,30.04,West,280,0.0,0.0,95,0.00,,,0.14,Wunderground v.1.15,2013-01-14 07:51:00,
2013-01-14 02:52:00,47.6,46.2,30.04,West,280,0.0,0.0,95,0.22,,,0.14,Wunderground v.1.15,2013-01-14 07:52:00,
2013-01-14 02:54:00,47.5,46.1,30.04,West,280,0.0,0.0,95,0.22,,,0.15,Wunderground v.1.15,2013-01-14 07:54:00,
2013-01-14 02:55:00,47.5,46.1,30.05,West,280,0.0,1.0,95,0.20,,,0.15,Wunderground v.1.15,2013-01-14 07:55:00,
2013-01-14 02:56:00,47.5,46.1,30.04,West,280,1.0,1.0,95,0.15,,,0.15,Wunderground v.1.15,2013-01-14 07:56:00,
2013-01-14 02:58:00,47.4,46.0,30.04,West,280,1.0,2.0,95,0.14,,,0.16,Wunderground v.1.15,2013-01-14 07:58:00,
2013-01-14 02:59:00,47.4,46.0,30.04,West,280,0.0,2.0,95,0.14,,,0.16,Wunderground v.1.15,2013-01-14 07:59:00,
2013-01-14 03:00:00,47.4,46.0,30.03,West,280,1.0,2.0,95,0.14,,,0.16,Wunderground v.1.15,2013-01-14 08:00:00,
2013-01-14 03:02:00,47.3,45.9,30.03,West,280,1.0,3.0,95,0.11,,,0.16,Wunderground v.1.15,2013-01-14 08:02:00,
2013-01-14 03:03:00,47.3,45.9,30.04,West,281,0.0,3.0,95,0.11,,,0.17,Wunderground v.1.15,2013-01-14 08:03:00,
2013-01-14 03:04:00,47.3,45.9,30.04,West,280,0.0,3.0,95,0.11,,,0.17,Wunderground v.1.15,2013-01-14 08:04:00,
2013-01-14 03:06:00,47.2,45.8,30.04,West,280,0.0,3.0,95,0.11,,,0.17,Wunderground v.1.15,2013-01-14 08:06:00,
2013-01-14 03:07:00,47.2,45.8,30.04,West,280,0.0,3.0,95,0.11,,,0.17,Wunderground v.1.15,2013-01-14 08:07:00,
2013-01-14 03:08:00,47.2,45.8,30.04,West,280,0.0,3.0,95,0.10,,,0.17,Wunderground v.1.15,2013-01-14 08:08:00,
2013-01-14 03:10:00,47.2,45.8,30.04,West,281,0.0,0.0,95,0.08,,,0.17,Wunderground v.1.15,2013-01-14 08:10:00,
2013-01-14 03:11:00,47.2,45.8,30.04,West,280,0.0,1.0,95,0.07,,,0.17,Wunderground v.1.15,2013-01-14 08:11:00,
2013-01-14 03:12:00,47.2,45.8,30.04,West,280,0.0,1.0,95,0.06,,,0.17,Wunderground v.1.15,2013-01-14 08:12:00,
2013-01-14 03:14:00,47.2,45.8,30.04,West,280,0.0,1.0,95,0.05,,,0.17,Wunderground v.1.15,2013-01-14 08:14:00,
2013-01-14 03:15:00,47.2,45.8,30.04,West,280,0.0,1.0,95,0.05,,,0.18,Wunderground v.1.15,2013-01-14 08:15:00,
2013-01-14 03:16:00,47.2,45.8,30.04,West,280,0.0,1.0,95,0.05,,,0.18,Wunderground v.1.15,2013-01-14 08:16:00,
2013-01-14 03:17:00,47.2,45.8,30.05,West,281,0.0,1.0,95,0.05,,,0.18,Wunderground v.1.15,2013-01-14 08:17:00,
2013-01-14 03:19:00,47.2,45.8,30.05,West,281,2.0,2.0,95,0.05,,,0.18,Wunderground v.1.15,2013-01-14 08:19:00,
2013-01-14 03:20:00,47.2,46.1,30.05,West,280,2.0,2.0,96,0.05,,,0.18,Wunderground v.1.15,2013-01-14 08:20:00,
2013-01-14 03:22:00,47.1,45.7,30.05,West,280,0.0,2.0,95,0.05,,,0.18,Wunderground v.1.15,2013-01-14 08:22:00,
2013-01-14 03:23:00,47.1,45.7,30.05,West,280,0.0,2.0,95,0.05,,,0.18,Wunderground v.1.15,2013-01-14 08:23:00,
2013-01-14 03:24:00,47.0,45.6,30.05,West,281,0.0,2.0,95,0.06,,,0.19,Wunderground v.1.15,2013-01-14 08:24:00,
2013-01-14 03:25:00,47.1,45.7,30.05,West,280,0.0,2.0,95,0.06,,,0.19,Wunderground v.1.15,2013-01-14 08:25:00,
2013-01-14 03:27:00,47.0,45.6,30.05,West,280,0.0,2.0,95,0.18,,,0.20,Wunderground v.1.15,2013-01-14 08:27:00,
2013-01-14 03:28:00,47.0,45.6,30.05,West,280,0.0,2.0,95,0.18,,,0.20,Wunderground v.1.15,2013-01-14 08:28:00,
2013-01-14 03:29:00,46.9,45.5,30.05,West,280,0.0,2.0,95,0.18,,,0.20,Wunderground v.1.15,2013-01-14 08:29:00,
2013-01-14 03:30:00,46.9,45.5,30.05,West,281,0.0,0.0,95,0.19,,,0.21,Wunderground v.1.15,2013-01-14 08:30:00,
2013-01-14 03:33:00,46.9,45.5,30.05,West,280,0.0,1.0,95,0.17,,,0.21,Wunderground v.1.15,2013-01-14 08:33:00,
2013-01-14 03:35:00,46.8,45.4,30.05,West,280,0.0,1.0,95,0.13,,,0.21,Wunderground v.1.15,2013-01-14 08:35:00,
2013-01-14 03:38:00,46.8,45.7,30.05,West,280,1.0,2.0,96,0.10,,,0.22,Wunderground v.1.15,2013-01-14 08:38:00,
2013-01-14 03:39:00,46.8,45.7,30.05,West,281,0.0,2.0,96,0.10,,,0.22,Wunderground v.1.15,2013-01-14 08:39:00,
2013-01-14 03:40:00,46.8,45.7,30.06,West,280,0.0,0.0,96,0.10,,,0.22,Wunderground v.1.15,2013-01-14 08:40:00,
2013-01-14 03:41:00,46.8,45.7,30.06,West,280,0.0,1.0,96,0.10,,,0.22,Wunderground v.1.15,2013-01-14 08:41:00,
2013-01-14 03:43:00,46.8,45.7,30.05,West,280,0.0,1.0,96,0.11,,,0.23,Wunderground v.1.15,2013-01-14 08:43:00,
2013-01-14 03:44:00,46.8,45.7,30.05,West,280,0.0,1.0,96,0.11,,,0.23,Wunderground v.1.15,2013-01-14 08:44:00,
2013-01-14 03:45:00,46.8,45.7,30.05,West,280,0.0,1.0,96,0.17,,,0.23,Wunderground v.1.15,2013-01-14 08:45:00,
2013-01-14 03:46:00,46.8,45.7,30.04,WNW,285,2.0,2.0,96,0.17,,,0.24,Wunderground v.1.15,2013-01-14 08:46:00,
2013-01-14 03:48:00,46.8,45.7,30.04,North,350,0.0,3.0,96,0.16,,,0.24,Wunderground v.1.15,2013-01-14 08:48:00,
2013-01-14 03:50:00,46.8,45.7,30.04,North,351,1.0,1.0,96,0.16,,,0.25,Wunderground v.1.15,2013-01-14 08:50:00,
2013-01-14 03:51:00,46.8,45.7,30.04,North,355,1.0,2.0,96,0.16,,,0.25,Wunderground v.1.15,2013-01-14 08:51:00,
2013-01-14 03:53:00,46.6,45.5,30.05,North,355,0.0,4.0,96,0.12,,,0.25,Wunderground v.1.15,2013-01-14 08:53:00,
2013-01-14 03:55:00,46.6,45.5,30.05,North,355,0.0,4.0,96,0.09,,,0.25,Wunderground v.1.15,2013-01-14 08:55:00,
2013-01-14 03:56:00,46.5,45.4,30.05,North,355,0.0,4.0,96,0.08,,,0.25,Wunderground v.1.15,2013-01-14 08:56:00,
2013-01-14 03:59:00,46.5,45.1,30.06,North,355,2.0,4.0,95,0.07,,,0.26,Wunderground v.1.15,2013-01-14 08:59:00,
2013-01-14 04:00:00,46.5,45.1,30.06,North,355,0.0,2.0,95,0.38,,,0.27,Wunderground v.1.15,2013-01-14 09:00:00,
2013-01-14 04:02:00,46.5,45.1,30.06,North,355,0.0,2.0,95,0.24,,,0.27,Wunderground v.1.15,2013-01-14 09:02:00,
2013-01-14 04:05:00,46.4,45.3,30.05,North,355,0.0,2.0,96,0.13,,,0.28,Wunderground v.1.15,2013-01-14 09:05:00,
2013-01-14 04:07:00,46.4,45.3,30.05,North,355,0.0,2.0,96,0.19,,,0.29,Wunderground v.1.15,2013-01-14 09:07:00,
2013-01-14 04:10:00,46.3,45.2,30.06,North,355,1.0,1.0,96,0.18,,,0.29,Wunderground v.1.15,2013-01-14 09:10:00,
2013-01-14 04:11:00,46.3,45.2,30.06,North,355,0.0,2.0,96,0.14,,,0.30,Wunderground v.1.15,2013-01-14 09:11:00,
2013-01-14 04:13:00,46.3,45.2,30.06,North,355,0.0,2.0,96,0.37,,,0.31,Wunderground v.1.15,2013-01-14 09:13:00,
2013-01-14 04:15:00,46.2,45.1,30.05,North,355,0.0,2.0,96,0.61,,,0.33,Wunderground v.1.15,2013-01-14 09:15:00,
2013-01-14 04:16:00,46.2,45.1,30.05,North,355,0.0,2.0,96,0.51,,,0.34,Wunderground v.1.15,2013-01-14 09:16:00,
2013-01-14 04:18:00,46.2,45.1,30.05,North,355,0.0,2.0,96,0.34,,,0.35,Wunderground v.1.15,2013-01-14 09:18:00,
2013-01-14 04:20:00,46.1,45.0,30.06,North,355,2.0,2.0,96,0.18,,,0.35,Wunderground v.1.15,2013-01-14 09:20:00,
2013-01-14 04:21:00,46.1,45.0,30.06,North,355,2.0,2.0,96,0.18,,,0.36,Wunderground v.1.15,2013-01-14 09:21:00,
2013-01-14 04:23:00,46.1,45.0,30.06,North,355,1.0,2.0,96,0.18,,,0.37,Wunderground v.1.15,2013-01-14 09:23:00,
2013-01-14 04:25:00,46.1,45.0,30.06,North,355,0.0,2.0,96,0.47,,,0.38,Wunderground v.1.15,2013-01-14 09:25:00,
2013-01-14 04:26:00,46.1,45.0,30.06,North,355,0.0,2.0,96,0.64,,,0.39,Wunderground v.1.15,2013-01-14 09:26:00,
2013-01-14 04:29:00,46.1,45.0,30.05,North,355,0.0,2.0,96,0.20,,,0.40,Wunderground v.1.15,2013-01-14 09:29:00,
2013-01-14 04:30:00,46.0,44.9,30.06,North,355,2.0,3.0,96,0.20,,,0.40,Wunderground v.1.15,2013-01-14 09:30:00,
2013-01-14 04:31:00,46.0,44.9,30.06,North,355,0.0,3.0,96,0.20,,,0.40,Wunderground v.1.15,2013-01-14 09:31:00,
2013-01-14 04:32:00,45.9,44.8,30.06,North,355,0.0,3.0,96,0.15,,,0.40,Wunderground v.1.15,2013-01-14 09:32:00,
2013-01-14 04:34:00,45.8,44.7,30.06,North,355,0.0,3.0,96,0.12,,,0.41,Wunderground v.1.15,2013-01-14 09:34:00,
2013-01-14 04:35:00,45.8,44.4,30.06,North,355,0.0,3.0,95,0.12,,,0.41,Wunderground v.1.15,2013-01-14 09:35:00,
2013-01-14 04:37:00,45.7,44.6,30.06,North,355,0.0,3.0,96,0.12,,,0.41,Wunderground v.1.15,2013-01-14 09:37:00,
2013-01-14 04:38:00,45.6,44.5,30.06,North,355,0.0,3.0,96,0.12,,,0.41,Wunderground v.1.15,2013-01-14 09:38:00,
2013-01-14 04:39:00,45.6,44.5,30.06,North,355,0.0,3.0,96,0.11,,,0.41,Wunderground v.1.15,2013-01-14 09:39:00,
2013-01-14 04:40:00,45.5,44.4,30.06,North,355,1.0,1.0,96,0.09,,,0.41,Wunderground v.1.15,2013-01-14 09:40:00,
2013-01-14 04:42:00,45.5,44.4,30.05,North,355,0.0,2.0,96,0.07,,,0.41,Wunderground v.1.15,2013-01-14 09:42:00,
2013-01-14 04:43:00,45.4,44.3,30.05,North,355,1.0,2.0,96,0.06,,,0.41,Wunderground v.1.15,2013-01-14 09:43:00,
2013-01-14 04:44:00,45.4,44.3,30.06,North,355,0.0,2.0,96,0.06,,,0.41,Wunderground v.1.15,2013-01-14 09:44:00,
2013-01-14 04:45:00,45.3,44.0,30.05,North,355,0.0,2.0,95,0.05,,,0.41,Wunderground v.1.15,2013-01-14 09:45:00,
2013-01-14 04:47:00,45.3,44.0,30.06,North,355,0.0,2.0,95,0.04,,,0.41,Wunderground v.1.15,2013-01-14 09:47:00,
2013-01-14 04:48:00,45.2,43.9,30.06,North,355,2.0,2.0,95,0.04,,,0.41,Wunderground v.1.15,2013-01-14 09:48:00,
2013-01-14 04:49:00,45.2,43.9,30.05,North,355,0.0,2.0,95,0.04,,,0.41,Wunderground v.1.15,2013-01-14 09:49:00,
2013-01-14 04:51:00,45.2,43.9,30.06,North,355,0.0,1.0,95,0.04,,,0.42,Wunderground v.1.15,2013-01-14 09:51:00,
2013-01-14 04:53:00,45.1,44.0,30.06,North,355,1.0,2.0,96,0.04,,,0.42,Wunderground v.1.15,2013-01-14 09:53:00,
2013-01-14 04:54:00,45.1,44.0,30.06,North,355,1.0,2.0,96,0.04,,,0.42,Wunderground v.1.15,2013-01-14 09:54:00,
2013-01-14 04:56:00,45.1,44.0,30.06,North,355,0.0,2.0,96,0.04,,,0.42,Wunderground v.1.15,2013-01-14 09:56:00,
2013-01-14 04:58:00,45.0,43.9,30.06,North,355,0.0,2.0,96,0.04,,,0.42,Wunderground v.1.15,2013-01-14 09:58:00,
2013-01-14 04:59:00,45.0,43.9,30.06,North,355,0.0,2.0,96,0.04,,,0.42,Wunderground v.1.15,2013-01-14 09:59:00,
2013-01-14 05:01:00,45.0,43.9,30.06,North,355,0.0,1.0,96,0.04,,,0.42,Wunderground v.1.15,2013-01-14 10:01:00,
2013-01-14 05:03:00,45.0,43.9,30.06,North,355,1.0,1.0,96,0.04,,,0.42,Wunderground v.1.15,2013-01-14 10:03:00,
2013-01-14 05:04:00,45.0,43.9,30.06,North,355,1.0,2.0,96,0.04,,,0.42,Wunderground v.1.15,2013-01-14 10:04:00,
2013-01-14 05:05:00,45.0,43.9,30.06,North,355,1.0,2.0,96,0.04,,,0.42,Wunderground v.1.15,2013-01-14 10:05:00,
2013-01-14 05:06:00,45.0,43.9,30.07,North,355,0.0,3.0,96,0.04,,,0.42,Wunderground v.1.15,2013-01-14 10:06:00,
2013-01-14 05:08:00,44.9,43.8,30.07,North,355,0.0,3.0,96,0.00,,,0.42,Wunderground v.1.15,2013-01-14 10:08:00,
2013-01-14 05:10:00,44.9,43.8,30.07,North,355,1.0,1.0,96,0.00,,,0.42,Wunderground v.1.15,2013-01-14 10:10:00,
2013-01-14 05:11:00,44.9,43.8,30.07,North,355,0.0,1.0,96,0.00,,,0.42,Wunderground v.1.15,2013-01-14 10:11:00,
2013-01-14 05:13:00,44.9,43.8,30.07,North,355,1.0,2.0,96,0.00,,,0.42,Wunderground v.1.15,2013-01-14 10:13:00,
2013-01-14 05:15:00,44.8,43.7,30.07,North,355,0.0,2.0,96,0.00,,,0.43,Wunderground v.1.15,2013-01-14 10:15:00,
2013-01-14 05:16:00,44.8,43.7,30.07,North,355,0.0,2.0,96,0.00,,,0.43,Wunderground v.1.15,2013-01-14 10:16:00,
2013-01-14 05:18:00,44.8,43.7,30.06,North,355,1.0,2.0,96,0.00,,,0.43,Wunderground v.1.15,2013-01-14 10:18:00,
2013-01-14 05:20:00,44.8,43.7,30.06,North,355,0.0,0.0,96,0.00,,,0.43,Wunderground v.1.15,2013-01-14 10:20:00,
2013-01-14 05:21:00,44.8,43.7,30.07,North,355,0.0,0.0,96,0.00,,,0.43,Wunderground v.1.15,2013-01-14 10:21:00,
2013-01-14 05:24:00,44.8,43.7,30.07,North,355,0.0,0.0,96,0.07,,,0.44,Wunderground v.1.15,2013-01-14 10:24:00,
2013-01-14 05:25:00,44.8,43.7,30.07,North,355,2.0,2.0,96,0.07,,,0.44,Wunderground v.1.15,2013-01-14 10:25:00,
2013-01-14 05:26:00,44.8,43.7,30.07,North,355,2.0,2.0,96,0.07,,,0.44,Wunderground v.1.15,2013-01-14 10:26:00,
2013-01-14 05:27:00,44.8,43.7,30.07,North,355,1.0,2.0,96,0.07,,,0.44,Wunderground v.1.15,2013-01-14 10:27:00,
2013-01-14 05:29:00,44.8,43.7,30.07,North,355,0.0,2.0,96,0.07,,,0.44,Wunderground v.1.15,2013-01-14 10:29:00,
2013-01-14 05:30:00,44.8,43.7,30.07,North,355,0.0,0.0,96,0.07,,,0.44,Wunderground v.1.15,2013-01-14 10:30:00,
2013-01-14 05:32:00,44.7,43.6,30.07,North,355,0.0,0.0,96,0.07,,,0.44,Wunderground v.1.15,2013-01-14 10:32:00,
2013-01-14 05:34:00,44.8,43.7,30.08,North,355,0.0,1.0,96,0.05,,,0.44,Wunderground v.1.15,2013-01-14 10:34:00,
2013-01-14 05:36:00,44.7,43.6,30.08,North,355,0.0,1.0,96,0.05,,,0.44,Wunderground v.1.15,2013-01-14 10:36:00,
2013-01-14 05:37:00,44.8,43.7,30.08,North,355,0.0,1.0,96,0.04,,,0.44,Wunderground v.1.15,2013-01-14 10:37:00,
2013-01-14 05:39:00,44.8,43.7,30.07,North,355,0.0,0.0,96,0.04,,,0.44,Wunderground v.1.15,2013-01-14 10:39:00,
2013-01-14 05:41:00,44.8,43.7,30.07,North,355,0.0,1.0,96,0.00,,,0.45,Wunderground v.1.15,2013-01-14 10:41:00,
2013-01-14 05:42:00,44.8,43.7,30.07,North,355,2.0,2.0,96,0.00,,,0.45,Wunderground v.1.15,2013-01-14 10:42:00,
2013-01-14 05:45:00,44.8,43.7,30.07,North,355,0.0,2.0,96,0.00,,,0.45,Wunderground v.1.15,2013-01-14 10:45:00,
2013-01-14 05:46:00,44.8,43.7,30.08,North,355,1.0,2.0,96,0.00,,,0.45,Wunderground v.1.15,2013-01-14 10:46:00,
2013-01-14 05:48:00,44.7,43.6,30.08,North,355,0.0,2.0,96,0.00,,,0.45,Wunderground v.1.15,2013-01-14 10:48:00,
2013-01-14 05:51:00,44.7,43.6,30.08,North,355,0.0,0.0,96,0.00,,,0.45,Wunderground v.1.15,2013-01-14 10:51:00,
2013-01-14 05:53:00,44.7,43.6,30.08,North,355,0.0,1.0,96,0.00,,,0.45,Wunderground v.1.15,2013-01-14 10:53:00,
2013-01-14 05:56:00,44.7,43.6,30.08,North,355,0.0,1.0,96,0.00,,,0.45,Wunderground v.1.15,2013-01-14 10:56:00,
2013-01-14 05:58:00,44.7,43.6,30.08,North,355,0.0,1.0,96,0.00,,,0.45,Wunderground v.1.15,2013-01-14 10:58:00,
2013-01-14 06:01:00,44.7,43.6,30.08,North,355,0.0,0.0,96,0.00,,,0.46,Wunderground v.1.15,2013-01-14 11:01:00,
2013-01-14 06:02:00,44.7,43.6,30.08,North,355,0.0,0.0,96,0.00,,,0.46,Wunderground v.1.15,2013-01-14 11:02:00,
2013-01-14 06:03:00,44.7,43.6,30.08,North,355,0.0,0.0,96,0.00,,,0.46,Wunderground v.1.15,2013-01-14 11:03:00,
2013-01-14 06:06:00,44.8,43.7,30.08,North,355,0.0,1.0,96,0.00,,,0.46,Wunderground v.1.15,2013-01-14 11:06:00,
2013-01-14 06:07:00,44.8,43.7,30.08,North,355,0.0,1.0,96,0.00,,,0.46,Wunderground v.1.15,2013-01-14 11:07:00,
2013-01-14 06:08:00,44.9,43.8,30.08,North,355,0.0,1.0,96,0.00,,,0.46,Wunderground v.1.15,2013-01-14 11:08:00,
2013-01-14 06:11:00,44.9,43.8,30.08,North,355,0.0,0.0,96,0.00,,,0.46,Wunderground v.1.15,2013-01-14 11:11:00,
2013-01-14 06:12:00,44.9,43.8,30.08,North,355,0.0,0.0,96,0.00,,,0.46,Wunderground v.1.15,2013-01-14 11:12:00,
2013-01-14 06:13:00,44.9,43.8,30.08,North,355,0.0,0.0,96,0.00,,,0.46,Wunderground v.1.15,2013-01-14 11:13:00,
2013-01-14 06:14:00,44.9,43.8,30.08,North,355,0.0,2.0,96,0.00,,,0.46,Wunderground v.1.15,2013-01-14 11:14:00,
2013-01-14 06:16:00,44.9,43.8,30.08,North,355,1.0,2.0,96,0.00,,,0.46,Wunderground v.1.15,2013-01-14 11:16:00,
2013-01-14 06:17:00,44.9,43.8,30.08,North,355,0.0,2.0,96,0.00,,,0.46,Wunderground v.1.15,2013-01-14 11:17:00,
2013-01-14 06:18:00,45.0,43.9,30.08,North,355,1.0,2.0,96,0.00,,,0.46,Wunderground v.1.15,2013-01-14 11:18:00,
2013-01-14 06:20:00,45.0,43.9,30.08,North,355,0.0,1.0,96,0.00,,,0.46,Wunderground v.1.15,2013-01-14 11:20:00,
2013-01-14 06:21:00,45.0,43.9,30.08,North,355,1.0,1.0,96,0.00,,,0.46,Wunderground v.1.15,2013-01-14 11:21:00,
2013-01-14 06:22:00,45.0,43.9,30.08,North,355,0.0,1.0,96,0.00,,,0.46,Wunderground v.1.15,2013-01-14 11:22:00,
2013-01-14 06:24:00,45.0,43.9,30.08,North,355,1.0,1.0,96,0.00,,,0.46,Wunderground v.1.15,2013-01-14 11:24:00,
2013-01-14 06:25:00,45.0,43.9,30.08,North,355,0.0,1.0,96,0.00,,,0.46,Wunderground v.1.15,2013-01-14 11:25:00,
2013-01-14 06:26:00,45.0,43.9,30.08,North,360,2.0,3.0,96,0.00,,,0.46,Wunderground v.1.15,2013-01-14 11:26:00,
2013-01-14 06:27:00,45.0,43.9,30.08,North,5,2.0,3.0,96,0.00,,,0.46,Wunderground v.1.15,2013-01-14 11:27:00,
2013-01-14 06:29:00,45.0,43.9,30.08,North,5,1.0,3.0,96,0.00,,,0.46,Wunderground v.1.15,2013-01-14 11:29:00,
2013-01-14 06:30:00,45.0,43.9,30.08,North,5,0.0,1.0,96,0.00,,,0.46,Wunderground v.1.15,2013-01-14 11:30:00,
2013-01-14 06:32:00,45.0,43.9,30.08,North,5,0.0,1.0,96,0.00,,,0.46,Wunderground v.1.15,2013-01-14 11:32:00,
2013-01-14 06:34:00,45.0,43.9,30.08,North,5,0.0,1.0,96,0.00,,,0.46,Wunderground v.1.15,2013-01-14 11:34:00,
2013-01-14 06:36:00,45.0,43.9,30.08,North,5,2.0,2.0,96,0.00,,,0.47,Wunderground v.1.15,2013-01-14 11:36:00,
2013-01-14 06:37:00,45.0,43.9,30.08,North,360,0.0,2.0,96,0.00,,,0.47,Wunderground v.1.15,2013-01-14 11:37:00,
2013-01-14 06:38:00,45.0,43.9,30.08,North,360,0.0,2.0,96,0.00,,,0.47,Wunderground v.1.15,2013-01-14 11:38:00,
2013-01-14 06:39:00,45.0,43.9,30.08,North,5,0.0,2.0,96,0.00,,,0.47,Wunderground v.1.15,2013-01-14 11:39:00,
2013-01-14 06:41:00,45.0,43.9,30.08,North,5,0.0,1.0,96,0.00,,,0.47,Wunderground v.1.15,2013-01-14 11:41:00,
2013-01-14 06:42:00,45.0,43.9,30.08,North,5,2.0,3.0,96,0.00,,,0.47,Wunderground v.1.15,2013-01-14 11:42:00,
2013-01-14 06:43:00,45.0,43.9,30.08,North,360,1.0,3.0,96,0.00,,,0.47,Wunderground v.1.15,2013-01-14 11:43:00,
2013-01-14 06:44:00,45.0,43.9,30.08,North,5,0.0,3.0,96,0.00,,,0.47,Wunderground v.1.15,2013-01-14 11:44:00,
2013-01-14 06:47:00,45.0,43.9,30.08,North,360,0.0,3.0,96,0.00,,,0.47,Wunderground v.1.15,2013-01-14 11:47:00,
2013-01-14 06:48:00,45.0,43.9,30.08,North,5,0.0,3.0,96,0.00,,,0.47,Wunderground v.1.15,2013-01-14 11:48:00,
2013-01-14 06:49:00,45.0,43.9,30.08,North,360,0.0,3.0,96,0.00,,,0.47,Wunderground v.1.15,2013-01-14 11:49:00,
2013-01-14 06:52:00,45.0,43.9,30.09,North,5,0.0,2.0,96,0.00,,,0.47,Wunderground v.1.15,2013-01-14 11:52:00,
2013-01-14 06:53:00,45.0,43.9,30.09,North,360,1.0,2.0,96,0.00,,,0.47,Wunderground v.1.15,2013-01-14 11:53:00,
2013-01-14 06:54:00,45.0,43.9,30.09,North,5,0.0,2.0,96,0.00,,,0.47,Wunderground v.1.15,2013-01-14 11:54:00,
2013-01-14 06:57:00,45.0,43.9,30.09,North,360,2.0,2.0,96,0.00,,,0.47,Wunderground v.1.15,2013-01-14 11:57:00,
2013-01-14 06:58:00,45.1,44.0,30.09,North,5,3.0,3.0,96,0.00,,,0.47,Wunderground v.1.15,2013-01-14 11:58:00,
2013-01-14 07:00:00,45.0,43.9,30.09,NNE,13,0.0,2.0,96,0.00,,,0.47,Wunderground v.1.15,2013-01-14 12:00:00,
2013-01-14 07:02:00,45.0,43.9,30.09,NNE,13,1.0,2.0,96,0.00,,,0.47,Wunderground v.1.15,2013-01-14 12:02:00,
2013-01-14 07:03:00,45.0,43.9,30.09,NNE,13,2.0,2.0,96,0.00,,,0.47,Wunderground v.1.15,2013-01-14 12:03:00,
2013-01-14 07:04:00,45.0,43.9,30.09,NNE,13,1.0,2.0,96,0.00,,,0.47,Wunderground v.1.15,2013-01-14 12:04:00,
2013-01-14 07:05:00,45.0,43.9,30.10,NNE,14,0.0,3.0,96,0.00,,,0.47,Wunderground v.1.15,2013-01-14 12:05:00,
2013-01-14 07:08:00,45.0,43.9,30.10,NNE,14,0.0,3.0,96,0.00,,,0.47,Wunderground v.1.15,2013-01-14 12:08:00,
2013-01-14 07:09:00,45.1,44.0,30.10,NNE,14,2.0,3.0,96,0.00,,,0.47,Wunderground v.1.15,2013-01-14 12:09:00,
2013-01-14 07:10:00,45.1,44.0,30.10,NNE,14,0.0,1.0,96,0.00,,,0.47,Wunderground v.1.15,2013-01-14 12:10:00,
2013-01-14 07:13:00,45.1,44.0,30.10,NNE,14,0.0,2.0,96,0.00,,,0.48,Wunderground v.1.15,2013-01-14 12:13:00,
2013-01-14 07:14:00,45.2,44.1,30.11,NNE,14,2.0,2.0,96,0.00,,,0.48,Wunderground v.1.15,2013-01-14 12:14:00,
2013-01-14 07:15:00,45.2,44.1,30.10,North,11,0.0,3.0,96,0.00,,,0.48,Wunderground v.1.15,2013-01-14 12:15:00,
2013-01-14 07:16:00,45.2,44.1,30.10,North,11,0.0,3.0,96,0.00,,,0.48,Wunderground v.1.15,2013-01-14 12:16:00,
2013-01-14 07:18:00,45.2,44.1,30.10,NNE,12,2.0,3.0,96,0.00,,,0.48,Wunderground v.1.15,2013-01-14 12:18:00,
2013-01-14 07:19:00,45.2,44.1,30.10,NNE,12,1.0,3.0,96,0.00,,,0.48,Wunderground v.1.15,2013-01-14 12:19:00,
2013-01-14 07:21:00,45.2,44.1,30.10,NNE,12,0.0,2.0,96,0.00,,,0.48,Wunderground v.1.15,2013-01-14 12:21:00,
2013-01-14 07:23:00,45.2,44.1,30.10,NNE,12,0.0,2.0,96,0.00,,,0.48,Wunderground v.1.15,2013-01-14 12:23:00,
2013-01-14 07:24:00,45.2,44.1,30.10,NNE,12,0.0,2.0,96,0.00,,,0.48,Wunderground v.1.15,2013-01-14 12:24:00,
2013-01-14 07:26:00,45.2,44.1,30.10,NE,45,4.0,4.0,96,0.00,,,0.48,Wunderground v.1.15,2013-01-14 12:26:00,
2013-01-14 07:27:00,45.2,44.1,30.10,NE,45,3.0,4.0,96,0.00,,,0.48,Wunderground v.1.15,2013-01-14 12:27:00,
2013-01-14 07:28:00,45.2,44.1,30.10,ENE,69,5.0,5.0,96,0.00,,,0.48,Wunderground v.1.15,2013-01-14 12:28:00,
2013-01-14 07:29:00,45.2,44.1,30.09,ENE,69,2.0,5.0,96,0.00,,,0.48,Wunderground v.1.15,2013-01-14 12:29:00,
2013-01-14 07:32:00,45.2,44.1,30.10,ENE,62,1.0,6.0,96,0.00,,,0.49,Wunderground v.1.15,2013-01-14 12:32:00,
2013-01-14 07:33:00,45.2,44.1,30.10,ENE,61,0.0,6.0,96,0.00,,,0.49,Wunderground v.1.15,2013-01-14 12:33:00,
2013-01-14 07:35:00,45.1,44.0,30.10,ENE,62,0.0,6.0,96,0.00,,,0.49,Wunderground v.1.15,2013-01-14 12:35:00,
2013-01-14 07:37:00,45.2,44.1,30.10,ENE,61,0.0,6.0,96,0.00,,,0.49,Wunderground v.1.15,2013-01-14 12:37:00,
2013-01-14 07:38:00,45.2,44.1,30.10,ENE,62,2.0,6.0,96,0.00,,,0.49,Wunderground v.1.15,2013-01-14 12:38:00,
2013-01-14 07:40:00,45.2,44.1,30.10,ENE,61,3.0,3.0,96,0.08,,,0.50,Wunderground v.1.15,2013-01-14 12:40:00,
2013-01-14 07:42:00,45.2,44.1,30.10,ENE,58,2.0,6.0,96,0.08,,,0.50,Wunderground v.1.15,2013-01-14 12:42:00,
2013-01-14 07:43:00,45.1,44.0,30.10,ENE,58,1.0,6.0,96,0.08,,,0.50,Wunderground v.1.15,2013-01-14 12:43:00,
2013-01-14 07:45:00,45.2,44.1,30.09,ENE,57,4.0,6.0,96,0.08,,,0.50,Wunderground v.1.15,2013-01-14 12:45:00,
2013-01-14 07:47:00,45.1,44.0,30.10,ENE,62,1.0,6.0,96,0.07,,,0.50,Wunderground v.1.15,2013-01-14 12:47:00,
2013-01-14 07:48:00,45.1,44.0,30.10,ENE,65,2.0,6.0,96,0.06,,,0.50,Wunderground v.1.15,2013-01-14 12:48:00,
2013-01-14 07:49:00,45.1,44.0,30.10,ENE,64,0.0,6.0,96,0.06,,,0.51,Wunderground v.1.15,2013-01-14 12:49:00,
2013-01-14 07:50:00,45.1,44.0,30.10,ENE,65,1.0,2.0,96,0.06,,,0.51,Wunderground v.1.15,2013-01-14 12:50:00,
2013-01-14 07:52:00,45.1,44.0,30.10,NE,40,4.0,6.0,96,0.06,,,0.51,Wunderground v.1.15,2013-01-14 12:52:00,
2013-01-14 07:54:00,45.1,44.0,30.11,NE,46,0.0,6.0,96,0.06,,,0.51,Wunderground v.1.15,2013-01-14 12:54:00,
2013-01-14 07:55:00,45.1,44.0,30.11,NE,46,1.0,6.0,96,0.06,,,0.51,Wunderground v.1.15,2013-01-14 12:55:00,
2013-01-14 07:56:00,45.1,44.0,30.10,NE,45,0.0,6.0,96,0.06,,,0.51,Wunderground v.1.15,2013-01-14 12:56:00,
2013-01-14 07:57:00,45.1,44.0,30.10,NE,45,1.0,6.0,96,0.08,,,0.52,Wunderground v.1.15,2013-01-14 12:57:00,
2013-01-14 07:59:00,45.1,44.0,30.11,NE,44,3.0,6.0,96,0.08,,,0.52,Wunderground v.1.15,2013-01-14 12:59:00,
2013-01-14 08:00:00,45.0,43.9,30.11,NE,51,3.0,4.0,96,0.08,,,0.52,Wunderground v.1.15,2013-01-14 13:00:00,
2013-01-14 08:01:00,45.1,44.0,30.11,NE,51,4.0,4.0,96,0.08,,,0.52,Wunderground v.1.15,2013-01-14 13:01:00,
2013-01-14 08:02:00,45.0,43.9,30.11,NE,48,3.0,10.0,96,0.12,,,0.53,Wunderground v.1.15,2013-01-14 13:02:00,
2013-01-14 08:04:00,45.0,43.9,30.10,ENE,74,1.0,10.0,96,0.12,,,0.53,Wunderground v.1.15,2013-01-14 13:04:00,
2013-01-14 08:06:00,45.0,43.9,30.11,ENE,74,0.0,10.0,96,0.12,,,0.53,Wunderground v.1.15,2013-01-14 13:06:00,
2013-01-14 08:07:00,45.0,43.9,30.11,ENE,74,0.0,10.0,96,0.14,,,0.54,Wunderground v.1.15,2013-01-14 13:07:00,
2013-01-14 08:10:00,45.0,43.9,30.11,ENE,74,3.0,4.0,96,0.20,,,0.55,Wunderground v.1.15,2013-01-14 13:10:00,
2013-01-14 08:11:00,45.0,43.9,30.11,ENE,74,2.0,4.0,96,0.20,,,0.55,Wunderground v.1.15,2013-01-14 13:11:00,
2013-01-14 08:13:00,45.0,43.9,30.11,ENE,74,2.0,4.0,96,0.21,,,0.56,Wunderground v.1.15,2013-01-14 13:13:00,
2013-01-14 08:16:00,45.0,43.9,30.12,East,90,5.0,5.0,96,0.24,,,0.57,Wunderground v.1.15,2013-01-14 13:16:00,
2013-01-14 08:18:00,45.0,43.9,30.12,NE,41,3.0,9.0,96,0.17,,,0.58,Wunderground v.1.15,2013-01-14 13:18:00,
2013-01-14 08:21:00,44.9,43.8,30.12,East,80,2.0,5.0,96,0.17,,,0.58,Wunderground v.1.15,2013-01-14 13:21:00,
2013-01-14 08:22:00,44.9,43.8,30.12,NE,47,2.0,5.0,96,0.14,,,0.59,Wunderground v.1.15,2013-01-14 13:22:00,
2013-01-14 08:24:00,44.8,43.7,30.12,East,92,0.0,5.0,96,0.14,,,0.59,Wunderground v.1.15,2013-01-14 13:24:00,
2013-01-14 08:26:00,44.7,43.6,30.12,East,92,2.0,5.0,96,0.14,,,0.59,Wunderground v.1.15,2013-01-14 13:26:00,
2013-01-14 08:27:00,44.7,43.6,30.12,East,91,0.0,5.0,96,0.12,,,0.59,Wunderground v.1.15,2013-01-14 13:27:00,
2013-01-14 08:29:00,44.7,43.6,30.12,North,10,5.0,7.0,96,0.08,,,0.59,Wunderground v.1.15,2013-01-14 13:29:00,
2013-01-14 08:31:00,44.6,43.5,30.13,NNE,31,0.0,3.0,96,0.07,,,0.60,Wunderground v.1.15,2013-01-14 13:31:00,
2013-01-14 08:33:00,44.6,43.5,30.13,NE,40,0.0,5.0,96,0.07,,,0.60,Wunderground v.1.15,2013-01-14 13:33:00,
2013-01-14 08:35:00,44.6,43.5,30.13,NE,54,2.0,5.0,96,0.07,,,0.60,Wunderground v.1.15,2013-01-14 13:35:00,
2013-01-14 08:36:00,44.6,43.5,30.14,NE,55,0.0,5.0,96,0.07,,,0.60,Wunderground v.1.15,2013-01-14 13:36:00,
2013-01-14 08:38:00,44.6,43.5,30.14,NNE,21,2.0,5.0,96,0.07,,,0.60,Wunderground v.1.15,2013-01-14 13:38:00,
2013-01-14 08:40:00,44.5,43.4,30.14,NNE,17,0.0,4.0,96,0.07,,,0.61,Wunderground v.1.15,2013-01-14 13:40:00,
2013-01-14 08:41:00,44.5,43.4,30.15,NNE,17,0.0,4.0,96,0.07,,,0.61,Wunderground v.1.15,2013-01-14 13:41:00,
2013-01-14 08:42:00,44.5,43.4,30.15,NNE,17,1.0,4.0,96,0.07,,,0.61,Wunderground v.1.15,2013-01-14 13:42:00,
2013-01-14 08:43:00,44.5,43.4,30.15,NNE,17,1.0,4.0,96,0.07,,,0.61,Wunderground v.1.15,2013-01-14 13:43:00,
2013-01-14 08:47:00,44.5,43.4,30.15,NE,38,0.0,4.0,96,0.16,,,0.62,Wunderground v.1.15,2013-01-14 13:47:00,
2013-01-14 08:48:00,44.4,43.3,30.15,NE,53,4.0,5.0,96,0.36,,,0.63,Wunderground v.1.15,2013-01-14 13:48:00,
2013-01-14 08:52:00,44.3,43.2,30.15,ENE,67,1.0,5.0,96,0.30,,,0.65,Wunderground v.1.15,2013-01-14 13:52:00,
2013-01-14 08:53:00,44.2,43.1,30.15,ENE,63,1.0,5.0,96,0.28,,,0.66,Wunderground v.1.15,2013-01-14 13:53:00,
2013-01-14 08:57:00,44.2,43.1,30.15,ENE,63,0.0,5.0,96,0.18,,,0.67,Wunderground v.1.15,2013-01-14 13:57:00,
2013-01-14 08:59:00,44.2,43.1,30.15,ENE,64,2.0,5.0,96,0.18,,,0.67,Wunderground v.1.15,2013-01-14 13:59:00,
2013-01-14 09:02:00,44.2,43.1,30.15,NE,49,0.0,6.0,96,0.16,,,0.68,Wunderground v.1.15,2013-01-14 14:02:00,
2013-01-14 09:04:00,44.2,43.1,30.15,ENE,58,1.0,6.0,96,0.15,,,0.69,Wunderground v.1.15,2013-01-14 14:04:00,
2013-01-14 09:07:00,44.2,43.1,30.15,ENE,57,0.0,6.0,96,0.15,,,0.69,Wunderground v.1.15,2013-01-14 14:07:00,
2013-01-14 09:09:00,44.2,43.1,30.15,ENE,63,0.0,6.0,96,0.11,,,0.69,Wunderground v.1.15,2013-01-14 14:09:00,
2013-01-14 09:12:00,44.2,43.1,30.15,ENE,63,0.0,2.0,96,0.08,,,0.70,Wunderground v.1.15,2013-01-14 14:12:00,
2013-01-14 09:14:00,44.2,43.1,30.16,ENE,63,0.0,2.0,96,0.08,,,0.70,Wunderground v.1.15,2013-01-14 14:14:00,
2013-01-14 09:17:00,44.2,43.1,30.15,ENE,57,1.0,3.0,96,0.10,,,0.70,Wunderground v.1.15,2013-01-14 14:17:00,
2013-01-14 09:18:00,44.2,43.1,30.15,ENE,57,1.0,3.0,96,0.10,,,0.71,Wunderground v.1.15,2013-01-14 14:18:00,
2013-01-14 09:19:00,44.2,43.1,30.15,ENE,57,1.0,1.0,96,0.10,,,0.71,Wunderground v.1.15,2013-01-14 14:19:00,
2013-01-14 09:22:00,44.2,43.1,30.15,ENE,66,0.0,4.0,96,0.38,,,0.73,Wunderground v.1.15,2013-01-14 14:22:00,
2013-01-14 09:23:00,44.2,43.1,30.15,ENE,66,1.0,4.0,96,0.38,,,0.73,Wunderground v.1.15,2013-01-14 14:23:00,
2013-01-14 09:25:00,44.1,43.0,30.15,ENE,69,4.0,4.0,96,0.25,,,0.74,Wunderground v.1.15,2013-01-14 14:25:00,
2013-01-14 09:28:00,44.1,43.0,30.15,ENE,72,0.0,5.0,96,0.16,,,0.74,Wunderground v.1.15,2013-01-14 14:28:00,
2013-01-14 09:30:00,44.1,43.0,30.15,ENE,72,1.0,2.0,96,0.10,,,0.74,Wunderground v.1.15,2013-01-14 14:30:00,
2013-01-14 09:33:00,44.1,43.0,30.16,ENE,72,0.0,2.0,96,0.07,,,0.74,Wunderground v.1.15,2013-01-14 14:33:00,
2013-01-14 09:35:00,44.1,43.0,30.17,NNE,18,2.0,2.0,96,0.06,,,0.74,Wunderground v.1.15,2013-01-14 14:35:00,
2013-01-14 09:38:00,44.1,43.0,30.17,NNE,18,1.0,2.0,96,0.04,,,0.74,Wunderground v.1.15,2013-01-14 14:38:00,
2013-01-14 09:40:00,44.1,43.0,30.18,NNE,19,0.0,1.0,96,0.04,,,0.75,Wunderground v.1.15,2013-01-14 14:40:00,
2013-01-14 09:43:00,44.2,43.1,30.19,North,11,1.0,4.0,96,0.04,,,0.75,Wunderground v.1.15,2013-01-14 14:43:00,
2013-01-14 09:44:00,44.2,43.1,30.19,North,11,0.0,4.0,96,0.04,,,0.75,Wunderground v.1.15,2013-01-14 14:44:00,
2013-01-14 09:46:00,44.2,43.1,30.18,North,11,1.0,4.0,96,0.10,,,0.76,Wunderground v.1.15,2013-01-14 14:46:00,
2013-01-14 09:48:00,44.2,43.1,30.17,North,11,1.0,4.0,96,0.42,,,0.77,Wunderground v.1.15,2013-01-14 14:48:00,
2013-01-14 09:49:00,44.1,43.0,30.17,NNE,14,1.0,4.0,96,0.42,,,0.78,Wunderground v.1.15,2013-01-14 14:49:00,
2013-01-14 09:50:00,44.2,43.1,30.16,NE,55,1.0,5.0,96,0.46,,,0.79,Wunderground v.1.15,2013-01-14 14:50:00,
2013-01-14 09:54:00,44.1,43.0,30.16,ENE,60,2.0,5.0,96,0.32,,,0.81,Wunderground v.1.15,2013-01-14 14:54:00,
2013-01-14 09:56:00,44.1,43.0,30.16,ENE,65,0.0,5.0,96,0.19,,,0.82,Wunderground v.1.15,2013-01-14 14:56:00,
2013-01-14 09:59:00,44.1,43.0,30.16,NE,48,0.0,5.0,96,0.15,,,0.82,Wunderground v.1.15,2013-01-14 14:59:00,
2013-01-14 10:01:00,44.1,43.0,30.16,NE,49,2.0,3.0,96,0.15,,,0.83,Wunderground v.1.15,2013-01-14 15:01:00,
2013-01-14 10:04:00,44.0,42.9,30.15,East,90,4.0,5.0,96,0.12,,,0.83,Wunderground v.1.15,2013-01-14 15:04:00,
2013-01-14 10:06:00,44.0,42.9,30.15,East,90,1.0,5.0,96,0.08,,,0.83,Wunderground v.1.15,2013-01-14 15:06:00,
2013-01-14 10:09:00,44.1,43.0,30.15,ESE,117,2.0,5.0,96,0.07,,,0.84,Wunderground v.1.15,2013-01-14 15:09:00,
2013-01-14 10:12:00,44.1,43.0,30.15,East,86,1.0,4.0,96,0.07,,,0.84,Wunderground v.1.15,2013-01-14 15:12:00,
2013-01-14 10:14:00,44.1,43.0,30.16,East,83,0.0,4.0,96,0.07,,,0.84,Wunderground v.1.15,2013-01-14 15:14:00,
2013-01-14 10:15:00,44.1,43.0,30.15,East,83,3.0,4.0,96,0.07,,,0.84,Wunderground v.1.15,2013-01-14 15:15:00,
2013-01-14 10:17:00,44.1,43.0,30.15,ENE,75,3.0,4.0,96,0.07,,,0.84,Wunderground v.1.15,2013-01-14 15:17:00,
2013-01-14 10:19:00,44.1,43.0,30.15,ENE,75,0.0,4.0,96,0.05,,,0.84,Wunderground v.1.15,2013-01-14 15:19:00,
2013-01-14 10:20:00,44.2,43.1,30.15,ENE,76,1.0,2.0,96,0.05,,,0.84,Wunderground v.1.15,2013-01-14 15:20:00,
2013-01-14 10:22:00,44.2,43.1,30.15,ENE,71,5.0,5.0,96,0.04,,,0.84,Wunderground v.1.15,2013-01-14 15:22:00,
2013-01-14 10:24:00,44.2,43.1,30.15,NE,51,1.0,7.0,96,0.04,,,0.84,Wunderground v.1.15,2013-01-14 15:24:00,
2013-01-14 10:26:00,44.2,43.1,30.14,ENE,75,3.0,7.0,96,0.00,,,0.84,Wunderground v.1.15,2013-01-14 15:26:00,
2013-01-14 10:27:00,44.2,43.1,30.14,ENE,78,3.0,7.0,96,0.00,,,0.84,Wunderground v.1.15,2013-01-14 15:27:00,
2013-01-14 10:29:00,44.2,43.1,30.14,ENE,72,3.0,7.0,96,0.00,,,0.84,Wunderground v.1.15,2013-01-14 15:29:00,
2013-01-14 10:30:00,44.3,43.2,30.14,ENE,72,2.0,2.0,96,0.00,,,0.84,Wunderground v.1.15,2013-01-14 15:30:00,
2013-01-14 10:31:00,44.3,43.2,30.15,North,9,6.0,6.0,96,0.00,,,0.84,Wunderground v.1.15,2013-01-14 15:31:00,
2013-01-14 10:32:00,44.3,43.2,30.15,North,10,2.0,6.0,96,0.00,,,0.85,Wunderground v.1.15,2013-01-14 15:32:00,
2013-01-14 10:35:00,44.2,43.1,30.16,NNE,15,1.0,6.0,96,0.00,,,0.85,Wunderground v.1.15,2013-01-14 15:35:00,
2013-01-14 10:36:00,44.2,43.1,30.16,NNE,14,0.0,6.0,96,0.00,,,0.85,Wunderground v.1.15,2013-01-14 15:36:00,
2013-01-14 10:38:00,44.2,43.1,30.17,NNE,15,0.0,6.0,96,0.00,,,0.85,Wunderground v.1.15,2013-01-14 15:38:00,
2013-01-14 10:40:00,44.2,43.1,30.16,NE,38,2.0,4.0,96,0.00,,,0.85,Wunderground v.1.15,2013-01-14 15:40:00,
2013-01-14 10:41:00,44.2,43.1,30.15,NNE,19,10.0,10.0,96,0.00,,,0.85,Wunderground v.1.15,2013-01-14 15:41:00,
2013-01-14 10:43:00,44.1,43.0,30.13,East,87,3.0,11.0,96,0.00,,,0.85,Wunderground v.1.15,2013-01-14 15:43:00,
2013-01-14 10:45:00,44.1,43.0,30.13,NNE,16,2.0,11.0,96,0.05,,,0.85,Wunderground v.1.15,2013-01-14 15:45:00,
2013-01-14 10:46:00,44.1,43.0,30.13,NNE,30,4.0,11.0,96,0.48,,,0.86,Wunderground v.1.15,2013-01-14 15:46:00,
2013-01-14 10:49:00,44.1,43.0,30.12,ENE,78,2.0,11.0,96,0.34,,,0.88,Wunderground v.1.15,2013-01-14 15:49:00,
2013-01-14 10:50:00,44.0,42.9,30.12,East,92,6.0,8.0,96,0.34,,,0.88,Wunderground v.1.15,2013-01-14 15:50:00,
2013-01-14 10:51:00,44.0,42.9,30.12,ENE,64,5.0,9.0,96,0.23,,,0.88,Wunderground v.1.15,2013-01-14 15:51:00,
2013-01-14 10:54:00,44.0,42.9,30.12,East,98,3.0,10.0,96,0.13,,,0.89,Wunderground v.1.15,2013-01-14 15:54:00,
2013-01-14 10:55:00,44.0,42.9,30.12,ESE,113,2.0,10.0,96,0.13,,,0.89,Wunderground v.1.15,2013-01-14 15:55:00,
2013-01-14 10:56:00,44.0,42.9,30.12,NNE,28,11.0,11.0,96,0.13,,,0.89,Wunderground v.1.15,2013-01-14 15:56:00,
2013-01-14 10:57:00,44.0,42.9,30.13,NNE,25,5.0,11.0,96,0.13,,,0.89,Wunderground v.1.15,2013-01-14 15:57:00,
2013-01-14 11:00:00,44.0,42.9,30.13,ESE,105,2.0,4.0,96,0.09,,,0.89,Wunderground v.1.15,2013-01-14 16:00:00,
2013-01-14 11:01:00,44.1,43.0,30.13,ESE,105,2.0,4.0,96,0.07,,,0.89,Wunderground v.1.15,2013-01-14 16:01:00,
2013-01-14 11:02:00,44.1,43.0,30.13,ESE,105,0.0,4.0,96,0.07,,,0.89,Wunderground v.1.15,2013-01-14 16:02:00,
2013-01-14 11:05:00,44.2,43.1,30.13,NNE,30,4.0,6.0,96,0.05,,,0.89,Wunderground v.1.15,2013-01-14 16:05:00,
2013-01-14 11:06:00,44.2,43.1,30.13,NE,42,0.0,6.0,96,0.05,,,0.89,Wunderground v.1.15,2013-01-14 16:06:00,
2013-01-14 11:07:00,44.2,43.1,30.13,NW,322,0.0,7.0,96,0.04,,,0.89,Wunderground v.1.15,2013-01-14 16:07:00,
2013-01-14 11:10:00,44.2,43.1,30.13,NW,325,3.0,3.0,96,0.00,,,0.89,Wunderground v.1.15,2013-01-14 16:10:00,
2013-01-14 11:12:00,44.2,43.1,30.13,North,360,2.0,7.0,96,0.00,,,0.89,Wunderground v.1.15,2013-01-14 16:12:00,
2013-01-14 11:15:00,44.2,43.1,30.13,NE,38,5.0,11.0,96,0.00,,,0.89,Wunderground v.1.15,2013-01-14 16:15:00,
2013-01-14 11:16:00,44.2,43.1,30.13,NE,49,3.0,11.0,96,0.00,,,0.89,Wunderground v.1.15,2013-01-14 16:16:00,
2013-01-14 11:17:00,44.1,43.0,30.13,North,11,2.0,11.0,96,0.00,,,0.89,Wunderground v.1.15,2013-01-14 16:17:00,
2013-01-14 11:20:00,44.1,43.0,30.13,NNE,12,1.0,3.0,96,0.00,,,0.89,Wunderground v.1.15,2013-01-14 16:20:00,
2013-01-14 11:21:00,44.1,43.0,30.14,North,11,0.0,3.0,96,0.00,,,0.89,Wunderground v.1.15,2013-01-14 16:21:00,
2013-01-14 11:22:00,44.1,43.0,30.13,NNE,28,3.0,6.0,96,0.00,,,0.89,Wunderground v.1.15,2013-01-14 16:22:00,
2013-01-14 11:25:00,44.0,42.7,30.13,NNE,25,0.0,13.0,95,0.00,,,0.89,Wunderground v.1.15,2013-01-14 16:25:00,
2013-01-14 11:26:00,44.0,42.7,30.13,NNE,25,1.0,13.0,95,0.00,,,0.89,Wunderground v.1.15,2013-01-14 16:26:00,
2013-01-14 11:27:00,44.0,42.7,30.13,NNE,25,1.0,13.0,95,0.00,,,0.89,Wunderground v.1.15,2013-01-14 16:27:00,
2013-01-14 11:28:00,44.0,42.7,30.13,NNE,25,2.0,13.0,95,0.00,,,0.89,Wunderground v.1.15,2013-01-14 16:28:00,
2013-01-14 11:30:00,44.0,42.7,30.14,East,87,2.0,4.0,95,0.00,,,0.89,Wunderground v.1.15,2013-01-14 16:30:00,
2013-01-14 11:32:00,44.0,42.7,30.14,East,82,2.0,4.0,95,0.00,,,0.89,Wunderground v.1.15,2013-01-14 16:32:00,
2013-01-14 11:33:00,44.0,42.7,30.14,East,82,0.0,4.0,95,0.00,,,0.89,Wunderground v.1.15,2013-01-14 16:33:00,
2013-01-14 11:35:00,44.0,42.7,30.14,ENE,67,1.0,5.0,95,0.00,,,0.89,Wunderground v.1.15,2013-01-14 16:35:00,
2013-01-14 11:37:00,43.9,42.6,30.13,ENE,67,1.0,5.0,95,0.00,,,0.89,Wunderground v.1.15,2013-01-14 16:37:00,
2013-01-14 11:39:00,44.0,42.7,30.13,East,85,1.0,5.0,95,0.00,,,0.89,Wunderground v.1.15,2013-01-14 16:39:00,
2013-01-14 11:41:00,44.0,42.7,30.13,East,85,4.0,5.0,95,0.00,,,0.90,Wunderground v.1.15,2013-01-14 16:41:00,
2013-01-14 11:42:00,44.0,42.7,30.14,East,85,1.0,5.0,95,0.00,,,0.90,Wunderground v.1.15,2013-01-14 16:42:00,
2013-01-14 11:43:00,44.0,42.7,30.14,WNW,296,4.0,5.0,95,0.00,,,0.90,Wunderground v.1.15,2013-01-14 16:43:00,
2013-01-14 11:44:00,43.9,42.6,30.15,WNW,296,1.0,5.0,95,0.00,,,0.90,Wunderground v.1.15,2013-01-14 16:44:00,
2013-01-14 11:47:00,44.0,42.7,30.14,NW,306,2.0,5.0,95,0.00,,,0.90,Wunderground v.1.15,2013-01-14 16:47:00,
2013-01-14 11:48:00,44.0,42.7,30.14,North,5,2.0,5.0,95,0.00,,,0.90,Wunderground v.1.15,2013-01-14 16:48:00,
2013-01-14 11:49:00,44.0,42.7,30.13,North,10,2.0,5.0,95,0.00,,,0.90,Wunderground v.1.15,2013-01-14 16:49:00,
2013-01-14 11:52:00,44.0,42.7,30.13,NE,49,0.0,4.0,95,0.00,,,0.90,Wunderground v.1.15,2013-01-14 16:52:00,
2013-01-14 11:53:00,44.0,42.7,30.13,NNE,29,3.0,6.0,95,0.00,,,0.90,Wunderground v.1.15,2013-01-14 16:53:00,
2013-01-14 11:54:00,44.0,42.7,30.13,NNW,338,5.0,6.0,95,0.00,,,0.90,Wunderground v.1.15,2013-01-14 16:54:00,
2013-01-14 11:57:00,43.9,42.6,30.13,ENE,59,1.0,6.0,95,0.04,,,0.91,Wunderground v.1.15,2013-01-14 16:57:00,
2013-01-14 11:58:00,43.9,42.6,30.13,ENE,59,0.0,6.0,95,0.04,,,0.91,Wunderground v.1.15,2013-01-14 16:58:00,
2013-01-14 11:59:00,43.9,42.6,30.13,ENE,59,0.0,6.0,95,0.04,,,0.91,Wunderground v.1.15,2013-01-14 16:59:00,
2013-01-14 12:02:00,43.9,42.6,30.12,ENE,59,1.0,3.0,95,0.24,,,0.93,Wunderground v.1.15,2013-01-14 17:02:00,
2013-01-14 12:03:00,43.9,42.6,30.12,ENE,76,2.0,4.0,95,0.24,,,0.93,Wunderground v.1.15,2013-01-14 17:03:00,
2013-01-14 12:04:00,43.9,42.6,30.12,ENE,76,0.0,4.0,95,0.29,,,0.94,Wunderground v.1.15,2013-01-14 17:04:00,
2013-01-14 12:08:00,43.9,42.6,30.10,East,95,5.0,7.0,95,0.27,,,0.95,Wunderground v.1.15,2013-01-14 17:08:00,
2013-01-14 12:10:00,43.8,42.5,30.11,East,82,1.0,2.0,95,0.27,,,0.96,Wunderground v.1.15,2013-01-14 17:10:00,
2013-01-14 12:13:00,43.8,42.7,30.11,East,82,0.0,2.0,96,0.18,,,0.97,Wunderground v.1.15,2013-01-14 17:13:00,
2013-01-14 12:15:00,43.8,42.7,30.10,ENE,74,0.0,3.0,96,0.20,,,0.98,Wunderground v.1.15,2013-01-14 17:15:00,
2013-01-14 12:18:00,43.8,42.7,30.10,ENE,74,0.0,3.0,96,0.20,,,0.98,Wunderground v.1.15,2013-01-14 17:18:00,
2013-01-14 12:20:00,43.8,42.7,30.11,ENE,74,1.0,1.0,96,0.14,,,0.99,Wunderground v.1.15,2013-01-14 17:20:00,
2013-01-14 12:23:00,43.8,42.7,30.11,NE,56,2.0,3.0,96,0.14,,,0.99,Wunderground v.1.15,2013-01-14 17:23:00,
2013-01-14 12:24:00,43.8,42.7,30.11,NE,56,2.0,3.0,96,0.12,,,0.99,Wunderground v.1.15,2013-01-14 17:24:00,
2013-01-14 12:25:00,43.8,42.7,30.10,NE,46,1.0,9.0,96,0.09,,,0.99,Wunderground v.1.15,2013-01-14 17:25:00,
2013-01-14 12:28:00,43.7,42.6,30.10,North,10,1.0,9.0,96,0.07,,,0.99,Wunderground v.1.15,2013-01-14 17:28:00,
2013-01-14 12:29:00,43.7,42.6,30.10,North,9,2.0,9.0,96,0.06,,,0.99,Wunderground v.1.15,2013-01-14 17:29:00,
2013-01-14 12:31:00,43.6,42.5,30.10,North,360,0.0,2.0,96,0.06,,,1.00,Wunderground v.1.15,2013-01-14 17:31:00,
2013-01-14 12:33:00,43.7,42.6,30.09,NE,55,2.0,7.0,96,0.06,,,1.00,Wunderground v.1.15,2013-01-14 17:33:00,
2013-01-14 12:34:00,43.7,42.6,30.09,North,355,5.0,7.0,96,0.06,,,1.00,Wunderground v.1.15,2013-01-14 17:34:00,
2013-01-14 12:36:00,43.7,42.6,30.09,ENE,65,1.0,7.0,96,0.06,,,1.00,Wunderground v.1.15,2013-01-14 17:36:00,
2013-01-14 12:39:00,43.7,42.6,30.09,NNE,24,0.0,7.0,96,0.08,,,1.01,Wunderground v.1.15,2013-01-14 17:39:00,
2013-01-14 12:41:00,43.7,42.6,30.09,NNE,24,3.0,3.0,96,0.16,,,1.02,Wunderground v.1.15,2013-01-14 17:41:00,
2013-01-14 12:44:00,43.7,42.6,30.09,ENE,73,1.0,5.0,96,0.17,,,1.02,Wunderground v.1.15,2013-01-14 17:44:00,
2013-01-14 12:45:00,43.8,42.7,30.09,ENE,63,2.0,5.0,96,0.17,,,1.03,Wunderground v.1.15,2013-01-14 17:45:00,
2013-01-14 12:46:00,43.8,42.7,30.10,NE,55,2.0,5.0,96,0.17,,,1.03,Wunderground v.1.15,2013-01-14 17:46:00,
2013-01-14 12:49:00,43.8,42.7,30.10,NNE,20,0.0,5.0,96,0.12,,,1.03,Wunderground v.1.15,2013-01-14 17:49:00,
2013-01-14 12:50:00,43.8,42.7,30.10,NNE,17,1.0,3.0,96,0.11,,,1.04,Wunderground v.1.15,2013-01-14 17:50:00,
2013-01-14 12:51:00,43.8,42.7,30.10,NE,38,2.0,4.0,96,0.11,,,1.04,Wunderground v.1.15,2013-01-14 17:51:00,
2013-01-14 12:54:00,43.7,42.6,30.10,ENE,67,1.0,4.0,96,0.11,,,1.04,Wunderground v.1.15,2013-01-14 17:54:00,
2013-01-14 12:55:00,43.7,42.6,30.10,North,5,5.0,6.0,96,0.11,,,1.04,Wunderground v.1.15,2013-01-14 17:55:00,
2013-01-14 12:56:00,43.7,42.6,30.09,NNE,33,4.0,6.0,96,0.09,,,1.04,Wunderground v.1.15,2013-01-14 17:56:00,
2013-01-14 12:59:00,43.7,42.6,30.08,NNE,30,2.0,6.0,96,0.09,,,1.05,Wunderground v.1.15,2013-01-14 17:59:00,
2013-01-14 13:00:00,43.7,42.6,30.08,NE,46,2.0,3.0,96,0.09,,,1.05,Wunderground v.1.15,2013-01-14 18:00:00,
2013-01-14 13:01:00,43.8,42.7,30.08,ENE,64,1.0,5.0,96,0.09,,,1.05,Wunderground v.1.15,2013-01-14 18:01:00,
2013-01-14 13:04:00,43.7,42.6,30.08,East,86,2.0,5.0,96,0.12,,,1.06,Wunderground v.1.15,2013-01-14 18:04:00,
2013-01-14 13:05:00,43.7,42.6,30.08,East,86,0.0,5.0,96,0.12,,,1.06,Wunderground v.1.15,2013-01-14 18:05:00,
2013-01-14 13:06:00,43.8,42.7,30.08,NE,51,0.0,5.0,96,0.12,,,1.06,Wunderground v.1.15,2013-01-14 18:06:00,
2013-01-14 13:09:00,43.7,42.6,30.08,NE,55,2.0,6.0,96,0.09,,,1.07,Wunderground v.1.15,2013-01-14 18:09:00,
2013-01-14 13:10:00,43.7,42.6,30.08,NE,49,1.0,4.0,96,0.09,,,1.07,Wunderground v.1.15,2013-01-14 18:10:00,
2013-01-14 13:11:00,43.7,42.6,30.08,ESE,117,3.0,5.0,96,0.09,,,1.07,Wunderground v.1.15,2013-01-14 18:11:00,
2013-01-14 13:12:00,43.7,42.6,30.08,ESE,117,2.0,5.0,96,0.09,,,1.07,Wunderground v.1.15,2013-01-14 18:12:00,
2013-01-14 13:14:00,43.7,42.6,30.08,ESE,117,4.0,5.0,96,0.09,,,1.07,Wunderground v.1.15,2013-01-14 18:14:00,
2013-01-14 13:16:00,43.7,42.6,30.08,ESE,115,4.0,5.0,96,0.08,,,1.07,Wunderground v.1.15,2013-01-14 18:16:00,
2013-01-14 13:17:00,43.7,42.6,30.08,ESE,114,1.0,5.0,96,0.07,,,1.07,Wunderground v.1.15,2013-01-14 18:17:00,
2013-01-14 13:19:00,43.6,42.5,30.08,ESE,115,1.0,5.0,96,0.05,,,1.07,Wunderground v.1.15,2013-01-14 18:19:00,
2013-01-14 13:21:00,43.7,42.6,30.09,ESE,115,1.0,2.0,96,0.05,,,1.08,Wunderground v.1.15,2013-01-14 18:21:00,
2013-01-14 13:22:00,43.7,42.6,30.09,ESE,115,1.0,2.0,96,0.05,,,1.08,Wunderground v.1.15,2013-01-14 18:22:00,
2013-01-14 13:24:00,43.7,42.6,30.09,ESE,115,0.0,2.0,96,0.05,,,1.08,Wunderground v.1.15,2013-01-14 18:24:00,
2013-01-14 13:26:00,43.8,42.7,30.09,SE,140,4.0,4.0,96,0.09,,,1.09,Wunderground v.1.15,2013-01-14 18:26:00,
2013-01-14 13:27:00,43.8,42.7,30.09,SE,140,3.0,4.0,96,0.09,,,1.09,Wunderground v.1.15,2013-01-14 18:27:00,
2013-01-14 13:28:00,43.7,42.6,30.09,SE,132,3.0,5.0,96,0.09,,,1.09,Wunderground v.1.15,2013-01-14 18:28:00,
2013-01-14 13:30:00,43.7,42.6,30.08,SE,132,0.0,1.0,96,0.09,,,1.09,Wunderground v.1.15,2013-01-14 18:30:00,
2013-01-14 13:31:00,43.7,42.6,30.08,SE,132,1.0,1.0,96,0.11,,,1.09,Wunderground v.1.15,2013-01-14 18:31:00,
2013-01-14 13:32:00,43.7,42.6,30.08,SE,132,0.0,1.0,96,0.11,,,1.10,Wunderground v.1.15,2013-01-14 18:32:00,
2013-01-14 13:33:00,43.7,42.6,30.07,SE,129,2.0,4.0,96,0.11,,,1.10,Wunderground v.1.15,2013-01-14 18:33:00,
2013-01-14 13:35:00,43.8,42.7,30.06,SE,124,1.0,5.0,96,0.11,,,1.10,Wunderground v.1.15,2013-01-14 18:35:00,
2013-01-14 13:36:00,43.8,42.7,30.05,SE,124,2.0,5.0,96,0.13,,,1.11,Wunderground v.1.15,2013-01-14 18:36:00,
2013-01-14 13:37:00,43.8,42.7,30.05,ESE,123,2.0,5.0,96,0.13,,,1.11,Wunderground v.1.15,2013-01-14 18:37:00,
2013-01-14 13:38:00,43.8,42.7,30.05,ENE,72,5.0,5.0,96,0.13,,,1.11,Wunderground v.1.15,2013-01-14 18:38:00,
2013-01-14 13:40:00,43.8,42.7,30.06,NE,45,5.0,5.0,96,0.19,,,1.12,Wunderground v.1.15,2013-01-14 18:40:00,
2013-01-14 13:42:00,43.8,42.7,30.06,NE,44,0.0,6.0,96,0.19,,,1.12,Wunderground v.1.15,2013-01-14 18:42:00,
2013-01-14 13:43:00,43.7,42.6,30.06,NE,44,3.0,6.0,96,0.17,,,1.12,Wunderground v.1.15,2013-01-14 18:43:00,
2013-01-14 13:45:00,43.8,42.7,30.06,East,80,2.0,6.0,96,0.10,,,1.13,Wunderground v.1.15,2013-01-14 18:45:00,
2013-01-14 13:47:00,43.8,42.7,30.07,ENE,61,2.0,6.0,96,0.10,,,1.13,Wunderground v.1.15,2013-01-14 18:47:00,
2013-01-14 13:49:00,43.8,42.7,30.07,ENE,62,1.0,6.0,96,0.10,,,1.13,Wunderground v.1.15,2013-01-14 18:49:00,
2013-01-14 13:51:00,43.7,42.6,30.07,ENE,71,5.0,5.0,96,0.10,,,1.13,Wunderground v.1.15,2013-01-14 18:51:00,
2013-01-14 13:52:00,43.7,42.6,30.07,ENE,71,1.0,6.0,96,0.08,,,1.13,Wunderground v.1.15,2013-01-14 18:52:00,
2013-01-14 13:54:00,43.7,42.6,30.07,NE,51,3.0,6.0,96,0.07,,,1.14,Wunderground v.1.15,2013-01-14 18:54:00,
2013-01-14 13:56:00,43.6,42.5,30.07,NE,56,1.0,6.0,96,0.07,,,1.14,Wunderground v.1.15,2013-01-14 18:56:00,
2013-01-14 13:57:00,43.6,42.5,30.07,ENE,57,1.0,6.0,96,0.07,,,1.14,Wunderground v.1.15,2013-01-14 18:57:00,
2013-01-14 13:58:00,43.6,42.5,30.07,ENE,57,1.0,6.0,96,0.07,,,1.14,Wunderground v.1.15,2013-01-14 18:58:00,
2013-01-14 13:59:00,43.7,42.6,30.06,ENE,58,2.0,6.0,96,0.12,,,1.15,Wunderground v.1.15,2013-01-14 18:59:00,
2013-01-14 14:02:00,43.7,42.6,30.06,NE,44,0.0,4.0,96,0.22,,,1.16,Wunderground v.1.15,2013-01-14 19:02:00,
2013-01-14 14:03:00,43.8,42.7,30.07,NE,53,3.0,4.0,96,0.22,,,1.16,Wunderground v.1.15,2013-01-14 19:03:00,
2013-01-14 14:05:00,43.8,42.7,30.06,NE,37,4.0,5.0,96,0.21,,,1.16,Wunderground v.1.15,2013-01-14 19:05:00,
2013-01-14 14:07:00,43.8,42.7,30.06,East,86,0.0,5.0,96,0.18,,,1.17,Wunderground v.1.15,2013-01-14 19:07:00,
2013-01-14 14:08:00,43.7,42.6,30.06,East,86,0.0,5.0,96,0.18,,,1.17,Wunderground v.1.15,2013-01-14 19:08:00,
2013-01-14 14:10:00,43.7,42.6,30.06,ENE,78,2.0,3.0,96,0.15,,,1.18,Wunderground v.1.15,2013-01-14 19:10:00,
2013-01-14 14:12:00,43.7,42.6,30.05,ENE,78,1.0,3.0,96,0.15,,,1.18,Wunderground v.1.15,2013-01-14 19:12:00,
2013-01-14 14:13:00,43.8,42.7,30.05,ENE,78,1.0,4.0,96,0.20,,,1.19,Wunderground v.1.15,2013-01-14 19:13:00,
2013-01-14 14:15:00,43.8,42.7,30.04,NE,53,4.0,4.0,96,0.31,,,1.20,Wunderground v.1.15,2013-01-14 19:15:00,
2013-01-14 14:17:00,43.8,42.7,30.05,ENE,76,1.0,7.0,96,0.21,,,1.20,Wunderground v.1.15,2013-01-14 19:17:00,
2013-01-14 14:18:00,43.8,42.7,30.06,ENE,77,0.0,7.0,96,0.15,,,1.20,Wunderground v.1.15,2013-01-14 19:18:00,
2013-01-14 14:19:00,43.8,42.7,30.06,ENE,76,0.0,7.0,96,0.15,,,1.21,Wunderground v.1.15,2013-01-14 19:19:00,
2013-01-14 14:21:00,43.9,42.8,30.06,East,82,3.0,3.0,96,0.15,,,1.21,Wunderground v.1.15,2013-01-14 19:21:00,
2013-01-14 14:22:00,43.9,42.8,30.06,ENE,71,1.0,4.0,96,0.15,,,1.21,Wunderground v.1.15,2013-01-14 19:22:00,
2013-01-14 14:23:00,43.9,42.8,30.06,ENE,71,2.0,4.0,96,0.12,,,1.21,Wunderground v.1.15,2013-01-14 19:23:00,
2013-01-14 14:24:00,43.9,42.8,30.06,ENE,71,1.0,4.0,96,0.11,,,1.21,Wunderground v.1.15,2013-01-14 19:24:00,
2013-01-14 14:26:00,43.9,42.8,30.06,ENE,71,4.0,4.0,96,0.08,,,1.21,Wunderground v.1.15,2013-01-14 19:26:00,
2013-01-14 14:28:00,43.9,42.8,30.06,NNE,24,2.0,6.0,96,0.07,,,1.22,Wunderground v.1.15,2013-01-14 19:28:00,
2013-01-14 14:29:00,43.8,42.7,30.06,NE,34,1.0,6.0,96,0.07,,,1.22,Wunderground v.1.15,2013-01-14 19:29:00,
2013-01-14 14:31:00,43.8,42.7,30.07,NE,34,0.0,2.0,96,0.07,,,1.22,Wunderground v.1.15,2013-01-14 19:31:00,
2013-01-14 14:33:00,43.8,42.7,30.07,NE,36,1.0,3.0,96,0.16,,,1.23,Wunderground v.1.15,2013-01-14 19:33:00,
2013-01-14 14:34:00,43.8,42.7,30.07,NE,36,0.0,3.0,96,0.16,,,1.23,Wunderground v.1.15,2013-01-14 19:34:00,
2013-01-14 14:36:00,43.8,42.7,30.06,NE,43,4.0,4.0,96,0.20,,,1.24,Wunderground v.1.15,2013-01-14 19:36:00,
2013-01-14 14:38:00,43.8,42.7,30.06,NE,43,1.0,4.0,96,0.19,,,1.25,Wunderground v.1.15,2013-01-14 19:38:00,
2013-01-14 14:39:00,43.8,42.7,30.06,NNE,21,5.0,6.0,96,0.19,,,1.25,Wunderground v.1.15,2013-01-14 19:39:00,
2013-01-14 14:41:00,43.8,42.7,30.06,NNE,29,1.0,3.0,96,0.26,,,1.26,Wunderground v.1.15,2013-01-14 19:41:00,
2013-01-14 14:43:00,43.8,42.7,30.06,NE,49,2.0,4.0,96,0.23,,,1.27,Wunderground v.1.15,2013-01-14 19:43:00,
2013-01-14 14:44:00,43.8,42.7,30.06,NE,52,4.0,6.0,96,0.23,,,1.27,Wunderground v.1.15,2013-01-14 19:44:00,
2013-01-14 14:46:00,43.8,42.7,30.06,North,11,1.0,6.0,96,0.26,,,1.28,Wunderground v.1.15,2013-01-14 19:46:00,
2013-01-14 14:48:00,43.8,42.7,30.06,ENE,71,3.0,6.0,96,0.18,,,1.28,Wunderground v.1.15,2013-01-14 19:48:00,
2013-01-14 14:49:00,43.8,42.7,30.05,East,79,1.0,6.0,96,0.14,,,1.28,Wunderground v.1.15,2013-01-14 19:49:00,
2013-01-14 14:52:00,43.8,42.7,30.05,ENE,75,2.0,3.0,96,0.11,,,1.29,Wunderground v.1.15,2013-01-14 19:52:00,
2013-01-14 14:53:00,43.9,42.8,30.05,ENE,72,4.0,4.0,96,0.11,,,1.29,Wunderground v.1.15,2013-01-14 19:53:00,
2013-01-14 14:54:00,43.9,42.8,30.05,NNE,23,2.0,5.0,96,0.16,,,1.30,Wunderground v.1.15,2013-01-14 19:54:00,
2013-01-14 14:57:00,43.9,42.8,30.05,NNE,17,3.0,5.0,96,0.16,,,1.30,Wunderground v.1.15,2013-01-14 19:57:00,
2013-01-14 14:58:00,43.9,42.8,30.05,NNE,30,0.0,5.0,96,0.14,,,1.30,Wunderground v.1.15,2013-01-14 19:58:00,
2013-01-14 14:59:00,43.9,42.8,30.05,NNE,30,0.0,5.0,96,0.12,,,1.31,Wunderground v.1.15,2013-01-14 19:59:00,
2013-01-14 15:00:00,43.9,42.8,30.05,NNE,30,0.0,2.0,96,0.12,,,1.31,Wunderground v.1.15,2013-01-14 20:00:00,
2013-01-14 15:03:00,43.9,42.8,30.06,NE,36,1.0,3.0,96,0.19,,,1.32,Wunderground v.1.15,2013-01-14 20:03:00,
2013-01-14 15:04:00,43.9,42.8,30.06,NE,36,0.0,3.0,96,0.19,,,1.32,Wunderground v.1.15,2013-01-14 20:04:00,
2013-01-14 15:05:00,43.9,42.8,30.06,NE,36,0.0,3.0,96,0.19,,,1.32,Wunderground v.1.15,2013-01-14 20:05:00,
2013-01-14 15:08:00,44.0,42.9,30.07,NE,36,1.0,3.0,96,0.18,,,1.33,Wunderground v.1.15,2013-01-14 20:08:00,
2013-01-14 15:09:00,44.0,42.9,30.06,NE,36,2.0,3.0,96,0.17,,,1.33,Wunderground v.1.15,2013-01-14 20:09:00,
2013-01-14 15:10:00,44.0,42.9,30.07,NE,34,2.0,2.0,96,0.16,,,1.34,Wunderground v.1.15,2013-01-14 20:10:00,
2013-01-14 15:13:00,44.0,42.9,30.07,North,349,0.0,3.0,96,0.19,,,1.35,Wunderground v.1.15,2013-01-14 20:13:00,
2013-01-14 15:14:00,44.1,43.0,30.08,North,350,0.0,3.0,96,0.19,,,1.35,Wunderground v.1.15,2013-01-14 20:14:00,
2013-01-14 15:15:00,44.0,42.9,30.07,North,350,1.0,3.0,96,0.20,,,1.35,Wunderground v.1.15,2013-01-14 20:15:00,
2013-01-14 15:18:00,44.1,43.0,30.08,North,350,3.0,3.0,96,0.20,,,1.36,Wunderground v.1.15,2013-01-14 20:18:00,
2013-01-14 15:19:00,44.1,43.0,30.07,North,349,0.0,3.0,96,0.21,,,1.37,Wunderground v.1.15,2013-01-14 20:19:00,
2013-01-14 15:21:00,44.1,43.0,30.08,North,350,0.0,1.0,96,0.26,,,1.37,Wunderground v.1.15,2013-01-14 20:21:00,
2013-01-14 15:23:00,44.1,43.0,30.08,ENE,57,0.0,2.0,96,0.36,,,1.39,Wunderground v.1.15,2013-01-14 20:23:00,
2013-01-14 15:24:00,44.1,43.0,30.07,NNE,28,1.0,5.0,96,0.35,,,1.40,Wunderground v.1.15,2013-01-14 20:24:00,
2013-01-14 15:26:00,44.1,43.0,30.07,East,83,1.0,5.0,96,0.32,,,1.40,Wunderground v.1.15,2013-01-14 20:26:00,
2013-01-14 15:28:00,44.1,43.0,30.08,East,83,0.0,5.0,96,0.24,,,1.41,Wunderground v.1.15,2013-01-14 20:28:00,
2013-01-14 15:29:00,44.1,43.0,30.08,East,83,2.0,5.0,96,0.22,,,1.41,Wunderground v.1.15,2013-01-14 20:29:00,
2013-01-14 15:31:00,44.1,43.0,30.08,East,83,1.0,1.0,96,0.17,,,1.42,Wunderground v.1.15,2013-01-14 20:31:00,
2013-01-14 15:33:00,44.1,43.0,30.09,East,83,0.0,1.0,96,0.23,,,1.43,Wunderground v.1.15,2013-01-14 20:33:00,
2013-01-14 15:34:00,44.1,43.0,30.09,East,83,0.0,1.0,96,0.64,,,1.44,Wunderground v.1.15,2013-01-14 20:34:00,
2013-01-14 15:36:00,44.2,43.1,30.09,East,83,0.0,1.0,96,0.32,,,1.45,Wunderground v.1.15,2013-01-14 20:36:00,
2013-01-14 15:37:00,44.2,43.1,30.09,East,79,0.0,2.0,96,0.32,,,1.45,Wunderground v.1.15,2013-01-14 20:37:00,
2013-01-14 15:38:00,44.1,43.0,30.09,East,79,1.0,2.0,96,0.19,,,1.45,Wunderground v.1.15,2013-01-14 20:38:00,
2013-01-14 15:40:00,44.2,43.1,30.09,East,79,2.0,2.0,96,0.18,,,1.46,Wunderground v.1.15,2013-01-14 20:40:00,
2013-01-14 15:41:00,44.1,43.0,30.09,ENE,78,1.0,5.0,96,0.40,,,1.47,Wunderground v.1.15,2013-01-14 20:41:00,
2013-01-14 15:42:00,44.1,43.0,30.09,ENE,78,0.0,5.0,96,0.44,,,1.48,Wunderground v.1.15,2013-01-14 20:42:00,
2013-01-14 15:44:00,44.1,43.0,30.09,ENE,78,0.0,5.0,96,0.30,,,1.48,Wunderground v.1.15,2013-01-14 20:44:00,
2013-01-14 15:45:00,44.1,43.0,30.09,ENE,78,0.0,5.0,96,0.29,,,1.49,Wunderground v.1.15,2013-01-14 20:45:00,
2013-01-14 15:46:00,44.1,43.0,30.09,ENE,78,0.0,5.0,96,0.28,,,1.50,Wunderground v.1.15,2013-01-14 20:46:00,
2013-01-14 15:47:00,44.1,43.0,30.10,ENE,78,1.0,5.0,96,0.28,,,1.50,Wunderground v.1.15,2013-01-14 20:47:00,
2013-01-14 15:49:00,44.1,43.0,30.10,ENE,78,2.0,5.0,96,0.19,,,1.50,Wunderground v.1.15,2013-01-14 20:49:00,
2013-01-14 15:50:00,44.1,43.0,30.11,ENE,76,1.0,3.0,96,0.19,,,1.51,Wunderground v.1.15,2013-01-14 20:50:00,
2013-01-14 15:52:00,44.1,43.0,30.11,ENE,76,2.0,3.0,96,0.22,,,1.51,Wunderground v.1.15,2013-01-14 20:52:00,
2013-01-14 15:54:00,44.1,43.0,30.12,ENE,77,1.0,3.0,96,0.22,,,1.52,Wunderground v.1.15,2013-01-14 20:54:00,
2013-01-14 15:56:00,44.1,43.0,30.13,ENE,77,1.0,3.0,96,0.21,,,1.53,Wunderground v.1.15,2013-01-14 20:56:00,
2013-01-14 15:57:00,44.1,43.0,30.13,ENE,76,0.0,3.0,96,0.21,,,1.53,Wunderground v.1.15,2013-01-14 20:57:00,
2013-01-14 16:00:00,44.0,42.9,30.13,ENE,76,0.0,1.0,96,0.38,,,1.55,Wunderground v.1.15,2013-01-14 21:00:00,
2013-01-14 16:01:00,44.0,42.9,30.13,ENE,76,3.0,3.0,96,0.34,,,1.56,Wunderground v.1.15,2013-01-14 21:01:00,
2013-01-14 16:02:00,43.9,42.8,30.13,North,9,1.0,6.0,96,0.24,,,1.56,Wunderground v.1.15,2013-01-14 21:02:00,
2013-01-14 16:05:00,43.8,42.7,30.13,North,9,0.0,6.0,96,0.19,,,1.57,Wunderground v.1.15,2013-01-14 21:05:00,
2013-01-14 16:06:00,43.8,42.7,30.13,North,9,0.0,6.0,96,0.23,,,1.58,Wunderground v.1.15,2013-01-14 21:06:00,
2013-01-14 16:07:00,43.8,42.7,30.14,North,9,0.0,6.0,96,0.23,,,1.58,Wunderground v.1.15,2013-01-14 21:07:00,
2013-01-14 16:08:00,43.8,42.7,30.14,North,9,0.0,6.0,96,0.23,,,1.58,Wunderground v.1.15,2013-01-14 21:08:00,
2013-01-14 16:10:00,43.8,42.7,30.14,North,9,1.0,1.0,96,0.15,,,1.58,Wunderground v.1.15,2013-01-14 21:10:00,
2013-01-14 16:11:00,43.8,42.7,30.15,North,9,0.0,1.0,96,0.14,,,1.59,Wunderground v.1.15,2013-01-14 21:11:00,
2013-01-14 16:13:00,43.8,42.7,30.15,North,9,0.0,1.0,96,0.32,,,1.60,Wunderground v.1.15,2013-01-14 21:13:00,
2013-01-14 16:15:00,43.8,42.7,30.15,North,9,0.0,1.0,96,0.26,,,1.61,Wunderground v.1.15,2013-01-14 21:15:00,
2013-01-14 16:16:00,43.8,42.7,30.15,North,9,1.0,1.0,96,0.26,,,1.61,Wunderground v.1.15,2013-01-14 21:16:00,
2013-01-14 16:18:00,43.8,42.7,30.15,North,9,0.0,1.0,96,0.30,,,1.62,Wunderground v.1.15,2013-01-14 21:18:00,
2013-01-14 16:20:00,43.8,42.7,30.15,NNE,13,1.0,2.0,96,0.17,,,1.63,Wunderground v.1.15,2013-01-14 21:20:00,
2013-01-14 16:22:00,43.8,42.7,30.16,NNE,13,0.0,2.0,96,0.17,,,1.63,Wunderground v.1.15,2013-01-14 21:22:00,
2013-01-14 16:23:00,43.8,42.7,30.16,NNE,13,3.0,3.0,96,0.21,,,1.64,Wunderground v.1.15,2013-01-14 21:23:00,
2013-01-14 16:26:00,43.8,42.7,30.16,NNW,331,0.0,3.0,96,0.24,,,1.65,Wunderground v.1.15,2013-01-14 21:26:00,
2013-01-14 16:27:00,43.7,42.6,30.17,NW,309,1.0,7.0,96,0.29,,,1.65,Wunderground v.1.15,2013-01-14 21:27:00,
2013-01-14 16:28:00,43.7,42.6,30.16,NW,309,0.0,7.0,96,0.29,,,1.66,Wunderground v.1.15,2013-01-14 21:28:00,
2013-01-14 16:29:00,43.7,42.6,30.16,NNW,328,2.0,7.0,96,0.35,,,1.67,Wunderground v.1.15,2013-01-14 21:29:00,
2013-01-14 16:31:00,43.7,42.6,30.16,NNW,329,1.0,2.0,96,0.27,,,1.67,Wunderground v.1.15,2013-01-14 21:31:00,
2013-01-14 16:32:00,43.7,42.6,30.17,NNW,329,1.0,2.0,96,0.22,,,1.68,Wunderground v.1.15,2013-01-14 21:32:00,
2013-01-14 16:33:00,43.7,42.6,30.17,NNW,329,1.0,2.0,96,0.22,,,1.68,Wunderground v.1.15,2013-01-14 21:33:00,
2013-01-14 16:34:00,43.8,42.7,30.17,NNW,329,0.0,2.0,96,0.28,,,1.69,Wunderground v.1.15,2013-01-14 21:34:00,
2013-01-14 16:36:00,43.7,42.6,30.17,NNW,329,0.0,2.0,96,0.32,,,1.70,Wunderground v.1.15,2013-01-14 21:36:00,
2013-01-14 16:37:00,43.7,42.6,30.17,NNW,329,0.0,2.0,96,0.32,,,1.70,Wunderground v.1.15,2013-01-14 21:37:00,
2013-01-14 16:38:00,43.7,42.6,30.17,NNW,329,0.0,2.0,96,0.20,,,1.70,Wunderground v.1.15,2013-01-14 21:38:00,
2013-01-14 16:39:00,43.7,42.6,30.17,NNW,329,0.0,2.0,96,0.20,,,1.71,Wunderground v.1.15,2013-01-14 21:39:00,
2013-01-14 16:41:00,43.7,42.6,30.17,NNW,329,0.0,0.0,96,0.20,,,1.71,Wunderground v.1.15,2013-01-14 21:41:00,
2013-01-14 16:42:00,43.8,42.7,30.17,ESE,108,2.0,3.0,96,0.18,,,1.72,Wunderground v.1.15,2013-01-14 21:42:00,
2013-01-14 16:44:00,43.7,42.6,30.17,ESE,108,0.0,3.0,96,0.18,,,1.72,Wunderground v.1.15,2013-01-14 21:44:00,
2013-01-14 16:45:00,43.7,42.6,30.16,ESE,108,0.0,3.0,96,0.18,,,1.72,Wunderground v.1.15,2013-01-14 21:45:00,
2013-01-14 16:47:00,43.8,42.7,30.16,ESE,106,2.0,3.0,96,0.17,,,1.73,Wunderground v.1.15,2013-01-14 21:47:00,
2013-01-14 16:48:00,43.8,42.7,30.16,ESE,106,0.0,3.0,96,0.17,,,1.73,Wunderground v.1.15,2013-01-14 21:48:00,
2013-01-14 16:49:00,43.8,42.7,30.16,ESE,106,1.0,3.0,96,0.17,,,1.73,Wunderground v.1.15,2013-01-14 21:49:00,
2013-01-14 16:50:00,43.8,42.7,30.16,ESE,106,1.0,1.0,96,0.16,,,1.74,Wunderground v.1.15,2013-01-14 21:50:00,
2013-01-14 16:52:00,43.8,42.7,30.15,ESE,103,3.0,4.0,96,0.16,,,1.74,Wunderground v.1.15,2013-01-14 21:52:00,
2013-01-14 16:53:00,43.7,42.6,30.15,ESE,105,1.0,4.0,96,0.18,,,1.75,Wunderground v.1.15,2013-01-14 21:53:00,
2013-01-14 16:54:00,43.7,42.6,30.15,ESE,103,2.0,4.0,96,0.18,,,1.75,Wunderground v.1.15,2013-01-14 21:54:00,
2013-01-14 16:55:00,43.7,42.6,30.15,East,101,0.0,4.0,96,0.28,,,1.76,Wunderground v.1.15,2013-01-14 21:55:00,
2013-01-14 16:57:00,43.6,42.5,30.16,East,101,0.0,4.0,96,0.28,,,1.76,Wunderground v.1.15,2013-01-14 21:57:00,
2013-01-14 16:58:00,43.7,42.6,30.16,East,101,1.0,4.0,96,0.21,,,1.77,Wunderground v.1.15,2013-01-14 21:58:00,
2013-01-14 16:59:00,43.6,42.5,30.16,ESE,109,2.0,5.0,96,0.21,,,1.77,Wunderground v.1.15,2013-01-14 21:59:00,
2013-01-14 17:01:00,43.6,42.5,30.16,ESE,109,1.0,2.0,96,0.27,,,1.78,Wunderground v.1.15,2013-01-14 22:01:00,
2013-01-14 17:02:00,43.6,42.5,30.17,ESE,109,0.0,2.0,96,0.27,,,1.78,Wunderground v.1.15,2013-01-14 22:02:00,
2013-01-14 17:04:00,43.6,42.5,30.17,ESE,109,2.0,3.0,96,0.25,,,1.79,Wunderground v.1.15,2013-01-14 22:04:00,
2013-01-14 17:06:00,43.5,42.4,30.18,ESE,109,2.0,3.0,96,0.33,,,1.80,Wunderground v.1.15,2013-01-14 22:06:00,
2013-01-14 17:07:00,43.5,42.4,30.18,ESE,109,1.0,3.0,96,0.24,,,1.81,Wunderground v.1.15,2013-01-14 22:07:00,
2013-01-14 17:09:00,43.5,42.4,30.18,ESE,109,2.0,3.0,96,0.25,,,1.81,Wunderground v.1.15,2013-01-14 22:09:00,
2013-01-14 17:11:00,43.4,42.3,30.18,ESE,109,1.0,3.0,96,0.25,,,1.82,Wunderground v.1.15,2013-01-14 22:11:00,
2013-01-14 17:12:00,43.4,42.3,30.18,ESE,109,3.0,3.0,96,0.23,,,1.83,Wunderground v.1.15,2013-01-14 22:12:00,
2013-01-14 17:15:00,43.4,42.3,30.17,ESE,107,1.0,4.0,96,0.18,,,1.83,Wunderground v.1.15,2013-01-14 22:15:00,
2013-01-14 17:17:00,43.5,42.4,30.17,ESE,107,0.0,4.0,96,0.16,,,1.84,Wunderground v.1.15,2013-01-14 22:17:00,
2013-01-14 17:20:00,43.5,42.4,30.18,ESE,107,2.0,2.0,96,0.14,,,1.84,Wunderground v.1.15,2013-01-14 22:20:00,
2013-01-14 17:22:00,43.5,42.4,30.18,ESE,106,0.0,2.0,96,0.12,,,1.85,Wunderground v.1.15,2013-01-14 22:22:00,
2013-01-14 17:23:00,43.5,42.4,30.18,ESE,107,0.0,2.0,96,0.12,,,1.85,Wunderground v.1.15,2013-01-14 22:23:00,
2013-01-14 17:25:00,43.6,42.5,30.18,ESE,107,0.0,2.0,96,0.23,,,1.86,Wunderground v.1.15,2013-01-14 22:25:00,
2013-01-14 17:27:00,43.6,42.5,30.18,ESE,107,2.0,4.0,96,0.23,,,1.87,Wunderground v.1.15,2013-01-14 22:27:00,
2013-01-14 17:28:00,43.5,42.4,30.18,ESE,107,0.0,4.0,96,0.23,,,1.87,Wunderground v.1.15,2013-01-14 22:28:00,
2013-01-14 17:30:00,43.5,42.4,30.19,ESE,107,1.0,1.0,96,0.24,,,1.88,Wunderground v.1.15,2013-01-14 22:30:00,
2013-01-14 17:32:00,43.4,42.3,30.19,ESE,106,0.0,3.0,96,0.17,,,1.88,Wunderground v.1.15,2013-01-14 22:32:00,
2013-01-14 17:33:00,43.4,42.3,30.19,ESE,107,2.0,3.0,96,0.13,,,1.88,Wunderground v.1.15,2013-01-14 22:33:00,
2013-01-14 17:35:00,43.4,42.3,30.20,ESE,107,1.0,3.0,96,0.13,,,1.89,Wunderground v.1.15,2013-01-14 22:35:00,
2013-01-14 17:37:00,43.4,42.3,30.20,ESE,107,1.0,3.0,96,0.21,,,1.90,Wunderground v.1.15,2013-01-14 22:37:00,
2013-01-14 17:38:00,43.5,42.4,30.21,ESE,107,0.0,3.0,96,0.21,,,1.90,Wunderground v.1.15,2013-01-14 22:38:00,
2013-01-14 17:41:00,43.4,42.3,30.19,ESE,107,2.0,3.0,96,0.27,,,1.92,Wunderground v.1.15,2013-01-14 22:41:00,
2013-01-14 17:42:00,43.4,42.3,30.19,ESE,107,0.0,3.0,96,0.27,,,1.92,Wunderground v.1.15,2013-01-14 22:42:00,
2013-01-14 17:43:00,43.4,42.3,30.19,ESE,107,0.0,3.0,96,0.27,,,1.92,Wunderground v.1.15,2013-01-14 22:43:00,
2013-01-14 17:46:00,43.3,42.2,30.20,SSE,150,1.0,3.0,96,0.23,,,1.94,Wunderground v.1.15,2013-01-14 22:46:00,
2013-01-14 17:47:00,43.4,42.3,30.20,SSE,150,0.0,3.0,96,0.23,,,1.94,Wunderground v.1.15,2013-01-14 22:47:00,
2013-01-14 17:48:00,43.3,42.2,30.19,SSE,148,2.0,3.0,96,0.23,,,1.94,Wunderground v.1.15,2013-01-14 22:48:00,
2013-01-14 17:50:00,43.3,42.2,30.19,SSE,148,1.0,1.0,96,0.17,,,1.95,Wunderground v.1.15,2013-01-14 22:50:00,
2013-01-14 17:51:00,43.3,42.2,30.19,SSE,148,0.0,2.0,96,0.17,,,1.95,Wunderground v.1.15,2013-01-14 22:51:00,
2013-01-14 17:52:00,43.3,42.2,30.19,SSE,148,0.0,2.0,96,0.19,,,1.95,Wunderground v.1.15,2013-01-14 22:52:00,
2013-01-14 17:53:00,43.3,42.2,30.19,ENE,76,2.0,3.0,96,0.19,,,1.96,Wunderground v.1.15,2013-01-14 22:53:00,
2013-01-14 17:55:00,43.3,42.2,30.19,ENE,60,1.0,4.0,96,0.19,,,1.96,Wunderground v.1.15,2013-01-14 22:55:00,
2013-01-14 17:56:00,43.3,42.2,30.19,ENE,60,1.0,4.0,96,0.14,,,1.96,Wunderground v.1.15,2013-01-14 22:56:00,
2013-01-14 17:57:00,43.2,42.1,30.19,ENE,60,1.0,4.0,96,0.14,,,1.97,Wunderground v.1.15,2013-01-14 22:57:00,
2013-01-14 17:59:00,43.2,42.1,30.19,ENE,71,3.0,4.0,96,0.14,,,1.97,Wunderground v.1.15,2013-01-14 22:59:00,
2013-01-14 18:00:00,43.2,42.1,30.18,ESE,117,1.0,3.0,96,0.22,,,1.98,Wunderground v.1.15,2013-01-14 23:00:00,
2013-01-14 18:01:00,43.2,42.1,30.18,ESE,110,0.0,4.0,96,0.29,,,1.99,Wunderground v.1.15,2013-01-14 23:01:00,
2013-01-14 18:03:00,43.1,42.0,30.18,NE,49,3.0,6.0,96,0.36,,,1.99,Wunderground v.1.15,2013-01-14 23:03:00,
2013-01-14 18:04:00,43.0,41.9,30.18,NE,36,5.0,6.0,96,0.36,,,2.00,Wunderground v.1.15,2013-01-14 23:04:00,
2013-01-14 18:05:00,43.0,41.9,30.18,NE,56,3.0,6.0,96,0.24,,,2.00,Wunderground v.1.15,2013-01-14 23:05:00,
2013-01-14 18:06:00,42.9,41.8,30.18,ENE,59,1.0,6.0,96,0.16,,,2.00,Wunderground v.1.15,2013-01-14 23:06:00,
2013-01-14 18:08:00,42.9,41.8,30.19,East,80,4.0,6.0,96,0.16,,,2.01,Wunderground v.1.15,2013-01-14 23:08:00,
2013-01-14 18:09:00,42.7,41.6,30.19,NNE,21,3.0,6.0,96,0.16,,,2.01,Wunderground v.1.15,2013-01-14 23:09:00,
2013-01-14 18:10:00,42.7,41.6,30.19,ENE,65,1.0,3.0,96,0.15,,,2.01,Wunderground v.1.15,2013-01-14 23:10:00,
2013-01-14 18:12:00,42.6,41.5,30.18,NE,40,2.0,6.0,96,0.11,,,2.02,Wunderground v.1.15,2013-01-14 23:12:00,
2013-01-14 18:13:00,42.5,41.4,30.19,East,99,0.0,6.0,96,0.11,,,2.02,Wunderground v.1.15,2013-01-14 23:13:00,
2013-01-14 18:14:00,42.5,41.4,30.20,SE,140,3.0,6.0,96,0.11,,,2.02,Wunderground v.1.15,2013-01-14 23:14:00,
2013-01-14 18:15:00,42.4,42.4,30.20,North,355,4.0,6.0,100,0.11,,,2.02,Wunderground v.1.15,2013-01-14 23:15:00,
2013-01-14 18:18:00,42.2,40.9,30.20,East,99,1.0,6.0,95,0.10,,,2.02,Wunderground v.1.15,2013-01-14 23:18:00,
2013-01-14 18:20:00,42.0,40.7,30.20,East,98,0.0,2.0,95,0.08,,,2.02,Wunderground v.1.15,2013-01-14 23:20:00,
2013-01-14 18:23:00,41.9,40.6,30.20,East,98,2.0,2.0,95,0.05,,,2.02,Wunderground v.1.15,2013-01-14 23:23:00,
2013-01-14 18:25:00,41.9,40.8,30.20,East,98,0.0,2.0,96,0.05,,,2.03,Wunderground v.1.15,2013-01-14 23:25:00,
2013-01-14 18:26:00,41.8,40.7,30.20,East,98,0.0,2.0,96,0.05,,,2.03,Wunderground v.1.15,2013-01-14 23:26:00,
2013-01-14 18:28:00,41.8,40.5,30.21,West,281,0.0,4.0,95,0.05,,,2.03,Wunderground v.1.15,2013-01-14 23:28:00,
2013-01-14 18:30:00,41.6,40.3,30.21,WNW,282,0.0,1.0,95,0.05,,,2.03,Wunderground v.1.15,2013-01-14 23:30:00,
2013-01-14 18:31:00,41.6,40.3,30.21,WNW,282,3.0,4.0,95,0.05,,,2.03,Wunderground v.1.15,2013-01-14 23:31:00,
2013-01-14 18:33:00,41.5,40.2,30.21,WNW,287,2.0,5.0,95,0.05,,,2.03,Wunderground v.1.15,2013-01-14 23:33:00,
2013-01-14 18:34:00,41.4,40.3,30.21,WNW,292,1.0,5.0,96,0.05,,,2.03,Wunderground v.1.15,2013-01-14 23:34:00,
2013-01-14 18:36:00,41.4,40.3,30.21,WNW,293,1.0,5.0,96,0.05,,,2.03,Wunderground v.1.15,2013-01-14 23:36:00,
2013-01-14 18:37:00,41.4,40.3,30.21,WNW,293,1.0,5.0,96,0.05,,,2.03,Wunderground v.1.15,2013-01-14 23:37:00,
2013-01-14 18:38:00,41.3,40.2,30.21,WNW,296,1.0,5.0,96,0.05,,,2.03,Wunderground v.1.15,2013-01-14 23:38:00,
2013-01-14 18:39:00,41.3,40.2,30.20,NNW,346,0.0,5.0,96,0.04,,,2.04,Wunderground v.1.15,2013-01-14 23:39:00,
2013-01-14 18:41:00,41.2,40.1,30.20,NNW,347,2.0,3.0,96,0.04,,,2.04,Wunderground v.1.15,2013-01-14 23:41:00,
2013-01-14 18:42:00,41.1,39.8,30.20,NNW,347,1.0,3.0,95,0.04,,,2.04,Wunderground v.1.15,2013-01-14 23:42:00,
2013-01-14 18:43:00,41.1,39.8,30.21,NNW,347,1.0,3.0,95,0.04,,,2.04,Wunderground v.1.15,2013-01-14 23:43:00,
2013-01-14 18:45:00,41.0,39.7,30.21,NNW,347,1.0,3.0,95,0.09,,,2.05,Wunderground v.1.15,2013-01-14 23:45:00,
2013-01-14 18:46:00,40.9,39.6,30.21,NNW,346,0.0,3.0,95,0.09,,,2.05,Wunderground v.1.15,2013-01-14 23:46:00,
2013-01-14 18:47:00,40.9,39.6,30.21,NNW,347,0.0,3.0,95,0.09,,,2.05,Wunderground v.1.15,2013-01-14 23:47:00,
2013-01-14 18:49:00,40.8,39.5,30.21,NNW,346,3.0,3.0,95,0.22,,,2.06,Wunderground v.1.15,2013-01-14 23:49:00,
2013-01-14 18:50:00,40.7,39.4,30.21,NNW,338,2.0,2.0,95,0.33,,,2.07,Wunderground v.1.15,2013-01-14 23:50:00,
2013-01-14 18:51:00,40.6,39.3,30.21,NNW,338,2.0,3.0,95,0.31,,,2.07,Wunderground v.1.15,2013-01-14 23:51:00,
2013-01-14 18:53:00,40.5,39.2,30.21,NNW,338,0.0,3.0,95,0.26,,,2.08,Wunderground v.1.15,2013-01-14 23:53:00,
2013-01-14 18:54:00,40.5,39.2,30.21,NNW,338,0.0,3.0,95,0.26,,,2.08,Wunderground v.1.15,2013-01-14 23:54:00,
2013-01-14 18:55:00,40.4,39.1,30.21,NNW,338,0.0,3.0,95,0.26,,,2.09,Wunderground v.1.15,2013-01-14 23:55:00,
2013-01-14 18:57:00,40.4,39.1,30.22,NNW,338,0.0,3.0,95,0.16,,,2.09,Wunderground v.1.15,2013-01-14 23:57:00,
2013-01-14 18:58:00,40.3,39.0,30.23,NNW,338,2.0,3.0,95,0.13,,,2.09,Wunderground v.1.15,2013-01-14 23:58:00,
2013-01-14 18:59:00,40.3,39.0,30.23,NNW,338,1.0,3.0,95,0.12,,,2.09,Wunderground v.1.15,2013-01-14 23:59:00,
2013-01-14 19:01:00,40.2,38.9,30.23,NNW,338,1.0,2.0,95,0.09,,,2.09,Wunderground v.1.15,2013-01-15 00:01:00,
2013-01-14 19:03:00,40.2,39.2,30.23,NNW,338,0.0,2.0,96,0.08,,,2.10,Wunderground v.1.15,2013-01-15 00:03:00,
2013-01-14 19:04:00,40.1,39.1,30.23,NNW,338,0.0,2.0,96,0.08,,,2.10,Wunderground v.1.15,2013-01-15 00:04:00,
2013-01-14 19:06:00,40.1,39.1,30.23,NNW,338,0.0,2.0,96,0.08,,,2.10,Wunderground v.1.15,2013-01-15 00:06:00,
2013-01-14 19:08:00,40.1,39.1,30.24,NNW,338,0.0,2.0,96,0.11,,,2.11,Wunderground v.1.15,2013-01-15 00:08:00,
2013-01-14 19:09:00,40.1,39.1,30.24,NNW,338,1.0,2.0,96,0.11,,,2.11,Wunderground v.1.15,2013-01-15 00:09:00,
2013-01-14 19:11:00,40.0,38.7,30.24,NNW,338,1.0,1.0,95,0.16,,,2.12,Wunderground v.1.15,2013-01-15 00:11:00,
2013-01-14 19:13:00,40.0,39.0,30.24,NNW,338,0.0,1.0,96,0.16,,,2.12,Wunderground v.1.15,2013-01-15 00:13:00,
2013-01-14 19:14:00,40.0,39.0,30.24,NNW,338,0.0,1.0,96,0.16,,,2.12,Wunderground v.1.15,2013-01-15 00:14:00,
2013-01-14 19:16:00,39.9,38.9,30.24,NNW,338,0.0,2.0,96,0.12,,,2.12,Wunderground v.1.15,2013-01-15 00:16:00,
2013-01-14 19:18:00,39.9,38.6,30.24,NNW,338,0.0,2.0,95,0.12,,,2.12,Wunderground v.1.15,2013-01-15 00:18:00,
2013-01-14 19:19:00,39.8,38.5,30.25,NNW,338,1.0,2.0,95,0.12,,,2.12,Wunderground v.1.15,2013-01-15 00:19:00,
2013-01-14 19:21:00,39.7,38.4,30.24,SSE,150,1.0,2.0,95,0.10,,,2.12,Wunderground v.1.15,2013-01-15 00:21:00,
2013-01-14 19:23:00,39.7,38.4,30.24,SSE,150,0.0,2.0,95,0.10,,,2.13,Wunderground v.1.15,2013-01-15 00:23:00,
2013-01-14 19:24:00,39.6,38.3,30.24,SSE,150,2.0,2.0,95,0.10,,,2.13,Wunderground v.1.15,2013-01-15 00:24:00,
2013-01-14 19:25:00,39.6,38.6,30.24,SSE,150,0.0,2.0,96,0.10,,,2.13,Wunderground v.1.15,2013-01-15 00:25:00,
2013-01-14 19:26:00,39.6,38.6,30.24,SSE,149,1.0,2.0,96,0.10,,,2.13,Wunderground v.1.15,2013-01-15 00:26:00,
2013-01-14 19:29:00,39.5,38.5,30.25,NE,42,4.0,6.0,96,0.08,,,2.13,Wunderground v.1.15,2013-01-15 00:29:00,
2013-01-14 19:30:00,39.4,38.4,30.24,NNE,26,0.0,1.0,96,0.06,,,2.13,Wunderground v.1.15,2013-01-15 00:30:00,
2013-01-14 19:31:00,39.3,38.3,30.24,NNE,25,1.0,1.0,96,0.06,,,2.13,Wunderground v.1.15,2013-01-15 00:31:00,
2013-01-14 19:34:00,39.3,38.3,30.24,ENE,76,0.0,2.0,96,0.05,,,2.13,Wunderground v.1.15,2013-01-15 00:34:00,
2013-01-14 19:35:00,39.3,38.0,30.25,ENE,76,3.0,4.0,95,0.04,,,2.13,Wunderground v.1.15,2013-01-15 00:35:00,
2013-01-14 19:36:00,39.2,37.9,30.25,ENE,76,1.0,4.0,95,0.04,,,2.13,Wunderground v.1.15,2013-01-15 00:36:00,
2013-01-14 19:39:00,39.2,37.9,30.24,East,83,4.0,5.0,95,0.00,,,2.13,Wunderground v.1.15,2013-01-15 00:39:00,
2013-01-14 19:40:00,39.1,37.8,30.24,East,91,3.0,3.0,95,0.00,,,2.13,Wunderground v.1.15,2013-01-15 00:40:00,
2013-01-14 19:41:00,39.2,37.9,30.22,East,87,4.0,4.0,95,0.00,,,2.13,Wunderground v.1.15,2013-01-15 00:41:00,
2013-01-14 19:44:00,39.2,38.2,30.21,East,91,3.0,5.0,96,0.00,,,2.13,Wunderground v.1.15,2013-01-15 00:44:00,
2013-01-14 19:45:00,39.1,38.1,30.21,East,94,3.0,7.0,96,0.00,,,2.13,Wunderground v.1.15,2013-01-15 00:45:00,
2013-01-14 19:46:00,39.1,38.1,30.21,East,90,1.0,7.0,96,0.00,,,2.14,Wunderground v.1.15,2013-01-15 00:46:00,
2013-01-14 19:49:00,39.0,38.0,30.21,NE,38,3.0,7.0,96,0.34,,,2.15,Wunderground v.1.15,2013-01-15 00:49:00,
2013-01-14 19:50:00,39.0,38.0,30.21,NE,38,2.0,3.0,96,0.28,,,2.15,Wunderground v.1.15,2013-01-15 00:50:00,
2013-01-14 19:52:00,38.9,37.9,30.21,NE,46,0.0,3.0,96,0.21,,,2.16,Wunderground v.1.15,2013-01-15 00:52:00,
2013-01-14 19:55:00,38.9,37.9,30.22,NE,44,0.0,4.0,96,0.15,,,2.16,Wunderground v.1.15,2013-01-15 00:55:00,
2013-01-14 19:57:00,39.0,38.0,30.21,ENE,59,1.0,4.0,96,0.15,,,2.17,Wunderground v.1.15,2013-01-15 00:57:00,
2013-01-14 20:01:00,39.0,38.0,30.22,SE,145,1.0,2.0,96,0.24,,,2.19,Wunderground v.1.15,2013-01-15 01:01:00,
2013-01-14 20:02:00,39.1,38.1,30.21,SE,146,1.0,3.0,96,0.24,,,2.19,Wunderground v.1.15,2013-01-15 01:02:00,
2013-01-14 20:06:00,39.1,38.1,30.22,SSW,205,2.0,3.0,96,0.16,,,2.20,Wunderground v.1.15,2013-01-15 01:06:00,
2013-01-14 20:07:00,39.0,38.0,30.22,SSW,205,1.0,3.0,96,0.16,,,2.20,Wunderground v.1.15,2013-01-15 01:07:00,
2013-01-14 20:08:00,39.1,38.1,30.22,SSW,205,1.0,3.0,96,0.16,,,2.20,Wunderground v.1.15,2013-01-15 01:08:00,
2013-01-14 20:11:00,39.0,38.0,30.22,SSW,199,0.0,3.0,96,0.16,,,2.21,Wunderground v.1.15,2013-01-15 01:11:00,
2013-01-14 20:12:00,39.1,38.1,30.21,SSW,199,1.0,3.0,96,0.14,,,2.21,Wunderground v.1.15,2013-01-15 01:12:00,
2013-01-14 20:13:00,39.1,38.1,30.21,SSW,200,1.0,3.0,96,0.12,,,2.21,Wunderground v.1.15,2013-01-15 01:13:00,
2013-01-14 20:16:00,39.1,38.1,30.19,ENE,76,2.0,6.0,96,0.07,,,2.21,Wunderground v.1.15,2013-01-15 01:16:00,
2013-01-14 20:17:00,39.1,38.1,30.19,ENE,63,4.0,6.0,96,0.07,,,2.21,Wunderground v.1.15,2013-01-15 01:17:00,
2013-01-14 20:18:00,39.2,38.2,30.19,East,86,1.0,6.0,96,0.06,,,2.21,Wunderground v.1.15,2013-01-15 01:18:00,
2013-01-14 20:22:00,39.2,38.2,30.21,ESE,102,2.0,5.0,96,0.04,,,2.21,Wunderground v.1.15,2013-01-15 01:22:00,
2013-01-14 20:23:00,39.2,38.2,30.21,SSE,160,1.0,5.0,96,0.04,,,2.21,Wunderground v.1.15,2013-01-15 01:23:00,
2013-01-14 20:27:00,39.2,38.2,30.23,NW,324,3.0,5.0,96,0.00,,,2.21,Wunderground v.1.15,2013-01-15 01:27:00,
2013-01-14 20:28:00,39.3,38.3,30.23,NW,324,2.0,2.0,96,0.00,,,2.22,Wunderground v.1.15,2013-01-15 01:28:00,
2013-01-14 20:29:00,39.3,38.3,30.23,NW,323,2.0,2.0,96,0.00,,,2.22,Wunderground v.1.15,2013-01-15 01:29:00,
2013-01-14 20:32:00,39.3,38.3,30.23,NW,323,1.0,3.0,96,0.14,,,2.22,Wunderground v.1.15,2013-01-15 01:32:00,
2013-01-14 20:34:00,39.3,38.3,30.22,East,86,4.0,4.0,96,0.14,,,2.23,Wunderground v.1.15,2013-01-15 01:34:00,
2013-01-14 20:37:00,39.3,38.3,30.20,East,84,1.0,4.0,96,0.16,,,2.24,Wunderground v.1.15,2013-01-15 01:37:00,
2013-01-14 20:39:00,39.3,38.3,30.20,East,84,1.0,1.0,96,0.21,,,2.25,Wunderground v.1.15,2013-01-15 01:39:00,
2013-01-14 20:42:00,39.3,38.3,30.21,NE,45,0.0,5.0,96,0.30,,,2.26,Wunderground v.1.15,2013-01-15 01:42:00,
2013-01-14 20:43:00,39.3,38.3,30.22,NE,45,2.0,5.0,96,0.19,,,2.26,Wunderground v.1.15,2013-01-15 01:43:00,
2013-01-14 20:44:00,39.3,38.3,30.22,NE,51,0.0,5.0,96,0.15,,,2.27,Wunderground v.1.15,2013-01-15 01:44:00,
2013-01-14 20:45:00,39.3,38.3,30.22,NE,51,0.0,5.0,96,0.15,,,2.27,Wunderground v.1.15,2013-01-15 01:45:00,
2013-01-14 20:47:00,39.4,38.4,30.21,East,79,4.0,5.0,96,0.15,,,2.27,Wunderground v.1.15,2013-01-15 01:47:00,
2013-01-14 20:48:00,39.4,38.4,30.22,East,80,1.0,5.0,96,0.14,,,2.27,Wunderground v.1.15,2013-01-15 01:48:00,
2013-01-14 20:49:00,39.4,38.4,30.22,East,79,0.0,3.0,96,0.11,,,2.27,Wunderground v.1.15,2013-01-15 01:49:00,
2013-01-14 20:50:00,39.4,38.4,30.22,East,80,2.0,3.0,96,0.10,,,2.27,Wunderground v.1.15,2013-01-15 01:50:00,
2013-01-14 20:52:00,39.4,38.4,30.21,East,80,2.0,3.0,96,0.07,,,2.27,Wunderground v.1.15,2013-01-15 01:52:00,
2013-01-14 20:53:00,39.4,38.4,30.21,ENE,70,3.0,6.0,96,0.07,,,2.28,Wunderground v.1.15,2013-01-15 01:53:00,
2013-01-14 20:54:00,39.4,38.4,30.22,ENE,70,2.0,6.0,96,0.07,,,2.28,Wunderground v.1.15,2013-01-15 01:54:00,
2013-01-14 20:55:00,39.4,38.4,30.22,ENE,69,2.0,6.0,96,0.07,,,2.28,Wunderground v.1.15,2013-01-15 01:55:00,
2013-01-14 20:57:00,39.4,38.4,30.22,NNW,332,5.0,9.0,96,0.13,,,2.29,Wunderground v.1.15,2013-01-15 01:57:00,
2013-01-14 20:59:00,39.4,38.4,30.21,ESE,103,4.0,4.0,96,0.13,,,2.29,Wunderground v.1.15,2013-01-15 01:59:00,
2013-01-14 21:00:00,39.4,38.4,30.21,ESE,106,3.0,3.0,96,0.13,,,2.29,Wunderground v.1.15,2013-01-15 02:00:00,
2013-01-14 21:03:00,39.3,38.3,30.21,ESE,111,0.0,3.0,96,0.10,,,2.29,Wunderground v.1.15,2013-01-15 02:03:00,
2013-01-14 21:04:00,39.3,38.3,30.21,ESE,111,2.0,3.0,96,0.08,,,2.29,Wunderground v.1.15,2013-01-15 02:04:00,
2013-01-14 21:05:00,39.3,38.3,30.21,NE,50,3.0,5.0,96,0.08,,,2.30,Wunderground v.1.15,2013-01-15 02:05:00,
2013-01-14 21:08:00,39.3,38.3,30.20,ENE,68,3.0,5.0,96,0.08,,,2.30,Wunderground v.1.15,2013-01-15 02:08:00,
2013-01-14 21:09:00,39.3,38.3,30.20,ENE,69,1.0,5.0,96,0.08,,,2.30,Wunderground v.1.15,2013-01-15 02:09:00,
2013-01-14 21:10:00,39.2,38.2,30.20,NNE,28,2.0,2.0,96,0.08,,,2.30,Wunderground v.1.15,2013-01-15 02:10:00,
2013-01-14 21:13:00,39.2,38.2,30.20,NNE,30,1.0,2.0,96,0.08,,,2.30,Wunderground v.1.15,2013-01-15 02:13:00,
2013-01-14 21:14:00,39.2,38.2,30.20,NNE,30,0.0,2.0,96,0.06,,,2.30,Wunderground v.1.15,2013-01-15 02:14:00,
2013-01-14 21:15:00,39.2,38.2,30.20,NNE,30,0.0,2.0,96,0.06,,,2.30,Wunderground v.1.15,2013-01-15 02:15:00,
2013-01-14 21:18:00,39.1,38.1,30.20,East,88,0.0,5.0,96,0.06,,,2.31,Wunderground v.1.15,2013-01-15 02:18:00,
2013-01-14 21:19:00,39.1,38.1,30.19,East,87,1.0,5.0,96,0.06,,,2.31,Wunderground v.1.15,2013-01-15 02:19:00,
2013-01-14 21:20:00,39.1,38.1,30.19,East,87,2.0,2.0,96,0.06,,,2.31,Wunderground v.1.15,2013-01-15 02:20:00,
2013-01-14 21:23:00,39.1,38.1,30.19,ENE,59,8.0,8.0,96,0.06,,,2.31,Wunderground v.1.15,2013-01-15 02:23:00,
2013-01-14 21:24:00,39.0,38.0,30.18,East,80,1.0,8.0,96,0.06,,,2.31,Wunderground v.1.15,2013-01-15 02:24:00,
2013-01-14 21:25:00,39.0,38.0,30.18,East,79,0.0,8.0,96,0.06,,,2.31,Wunderground v.1.15,2013-01-15 02:25:00,
2013-01-14 21:26:00,38.9,37.9,30.18,East,84,6.0,8.0,96,0.06,,,2.31,Wunderground v.1.15,2013-01-15 02:26:00,
2013-01-14 21:28:00,38.9,37.9,30.18,East,98,2.0,8.0,96,0.05,,,2.31,Wunderground v.1.15,2013-01-15 02:28:00,
2013-01-14 21:30:00,38.8,37.8,30.18,ESE,117,2.0,3.0,96,0.04,,,2.31,Wunderground v.1.15,2013-01-15 02:30:00,
2013-01-14 21:31:00,38.8,37.8,30.18,East,92,3.0,4.0,96,0.04,,,2.31,Wunderground v.1.15,2013-01-15 02:31:00,
2013-01-14 21:33:00,38.8,37.8,30.18,ENE,76,2.0,4.0,96,0.04,,,2.32,Wunderground v.1.15,2013-01-15 02:33:00,
2013-01-14 21:35:00,38.8,37.8,30.18,ENE,69,5.0,8.0,96,0.04,,,2.32,Wunderground v.1.15,2013-01-15 02:35:00,
2013-01-14 21:36:00,38.7,37.7,30.18,NE,40,5.0,11.0,96,0.04,,,2.32,Wunderground v.1.15,2013-01-15 02:36:00,
2013-01-14 21:38:00,38.7,37.7,30.18,NE,48,1.0,11.0,96,0.04,,,2.32,Wunderground v.1.15,2013-01-15 02:38:00,
2013-01-14 21:40:00,38.7,37.7,30.18,NNE,24,6.0,6.0,96,0.04,,,2.32,Wunderground v.1.15,2013-01-15 02:40:00,
2013-01-14 21:41:00,38.7,37.7,30.18,NNE,29,5.0,9.0,96,0.04,,,2.32,Wunderground v.1.15,2013-01-15 02:41:00,
2013-01-14 21:43:00,38.7,37.7,30.18,East,82,3.0,9.0,96,0.04,,,2.32,Wunderground v.1.15,2013-01-15 02:43:00,
2013-01-14 21:45:00,38.6,37.6,30.18,NE,37,5.0,9.0,96,0.04,,,2.32,Wunderground v.1.15,2013-01-15 02:45:00,
2013-01-14 21:46:00,38.6,37.6,30.18,ENE,70,1.0,9.0,96,0.04,,,2.32,Wunderground v.1.15,2013-01-15 02:46:00,
2013-01-14 21:48:00,38.6,37.6,30.18,NE,40,1.0,9.0,96,0.00,,,2.32,Wunderground v.1.15,2013-01-15 02:48:00,
2013-01-14 21:50:00,38.6,37.6,30.18,ESE,118,2.0,4.0,96,0.00,,,2.33,Wunderground v.1.15,2013-01-15 02:50:00,
2013-01-14 21:51:00,38.6,37.6,30.18,ENE,65,6.0,6.0,96,0.00,,,2.33,Wunderground v.1.15,2013-01-15 02:51:00,
2013-01-14 21:53:00,38.6,37.6,30.18,ENE,57,2.0,7.0,96,0.00,,,2.33,Wunderground v.1.15,2013-01-15 02:53:00,
2013-01-14 21:55:00,38.5,37.5,30.18,ENE,65,6.0,11.0,96,0.00,,,2.33,Wunderground v.1.15,2013-01-15 02:55:00,
2013-01-14 21:56:00,38.4,37.4,30.18,ENE,59,4.0,11.0,96,0.00,,,2.33,Wunderground v.1.15,2013-01-15 02:56:00,
2013-01-14 21:57:00,38.5,37.5,30.18,ENE,59,3.0,11.0,96,0.08,,,2.34,Wunderground v.1.15,2013-01-15 02:57:00,
2013-01-14 21:58:00,38.5,37.5,30.18,NE,54,3.0,11.0,96,0.08,,,2.34,Wunderground v.1.15,2013-01-15 02:58:00,
2013-01-14 22:00:00,38.4,37.4,30.18,ENE,57,2.0,3.0,96,0.08,,,2.34,Wunderground v.1.15,2013-01-15 03:00:00,
2013-01-14 22:01:00,38.5,37.5,30.18,East,94,4.0,4.0,96,0.08,,,2.34,Wunderground v.1.15,2013-01-15 03:01:00,
2013-01-14 22:02:00,38.4,37.4,30.18,North,360,13.0,13.0,96,0.11,,,2.35,Wunderground v.1.15,2013-01-15 03:02:00,
2013-01-14 22:03:00,38.4,37.4,30.18,East,80,0.0,13.0,96,0.11,,,2.35,Wunderground v.1.15,2013-01-15 03:03:00,
2013-01-14 22:05:00,38.4,37.4,30.18,NE,42,2.0,13.0,96,0.16,,,2.35,Wunderground v.1.15,2013-01-15 03:05:00,
2013-01-14 22:06:00,38.4,37.4,30.18,NE,42,0.0,13.0,96,0.16,,,2.36,Wunderground v.1.15,2013-01-15 03:06:00,
2013-01-14 22:07:00,38.4,37.4,30.18,ESE,103,1.0,13.0,96,0.16,,,2.36,Wunderground v.1.15,2013-01-15 03:07:00,
2013-01-14 22:09:00,38.4,37.4,30.18,ENE,59,3.0,13.0,96,0.16,,,2.36,Wunderground v.1.15,2013-01-15 03:09:00,
2013-01-14 22:10:00,38.4,37.4,30.18,NE,38,1.0,3.0,96,0.12,,,2.36,Wunderground v.1.15,2013-01-15 03:10:00,
2013-01-14 22:11:00,38.4,37.4,30.18,ENE,57,2.0,5.0,96,0.10,,,2.36,Wunderground v.1.15,2013-01-15 03:11:00,
2013-01-14 22:13:00,38.3,37.3,30.18,NNE,30,2.0,7.0,96,0.10,,,2.37,Wunderground v.1.15,2013-01-15 03:13:00,
2013-01-14 22:14:00,38.3,37.3,30.18,NNE,19,4.0,7.0,96,0.10,,,2.37,Wunderground v.1.15,2013-01-15 03:14:00,
2013-01-14 22:15:00,38.3,37.0,30.18,ENE,74,5.0,7.0,95,0.10,,,2.37,Wunderground v.1.15,2013-01-15 03:15:00,
2013-01-14 22:17:00,38.3,37.3,30.17,NE,42,2.0,7.0,96,0.10,,,2.37,Wunderground v.1.15,2013-01-15 03:17:00,
2013-01-14 22:18:00,38.3,37.3,30.17,NE,40,3.0,7.0,96,0.09,,,2.37,Wunderground v.1.15,2013-01-15 03:18:00,
2013-01-14 22:19:00,38.3,37.0,30.17,NE,42,2.0,7.0,95,0.08,,,2.37,Wunderground v.1.15,2013-01-15 03:19:00,
2013-01-14 22:21:00,38.3,37.3,30.17,ENE,74,7.0,7.0,96,0.06,,,2.37,Wunderground v.1.15,2013-01-15 03:21:00,
2013-01-14 22:22:00,38.3,37.3,30.17,NE,44,7.0,7.0,96,0.06,,,2.37,Wunderground v.1.15,2013-01-15 03:22:00,
2013-01-14 22:23:00,38.2,37.2,30.17,NE,39,2.0,7.0,96,0.05,,,2.38,Wunderground v.1.15,2013-01-15 03:23:00,
2013-01-14 22:24:00,38.2,36.9,30.16,ENE,60,1.0,7.0,95,0.05,,,2.38,Wunderground v.1.15,2013-01-15 03:24:00,
2013-01-14 22:26:00,38.2,36.9,30.16,ENE,66,4.0,7.0,95,0.05,,,2.38,Wunderground v.1.15,2013-01-15 03:26:00,
2013-01-14 22:27:00,38.2,37.2,30.16,NNE,18,0.0,7.0,96,0.16,,,2.39,Wunderground v.1.15,2013-01-15 03:27:00,
2013-01-14 22:28:00,38.2,37.2,30.16,NE,39,5.0,7.0,96,0.16,,,2.39,Wunderground v.1.15,2013-01-15 03:28:00,
2013-01-14 22:29:00,38.2,36.9,30.16,East,94,2.0,7.0,95,0.16,,,2.39,Wunderground v.1.15,2013-01-15 03:29:00,
2013-01-14 22:32:00,38.2,36.9,30.16,East,90,2.0,6.0,95,0.12,,,2.39,Wunderground v.1.15,2013-01-15 03:32:00,
2013-01-14 22:33:00,38.2,37.2,30.15,NE,37,2.0,6.0,96,0.09,,,2.39,Wunderground v.1.15,2013-01-15 03:33:00,
2013-01-14 22:34:00,38.2,36.9,30.14,NE,42,5.0,13.0,95,0.08,,,2.39,Wunderground v.1.15,2013-01-15 03:34:00,
2013-01-14 22:37:00,38.1,36.8,30.14,ENE,59,2.0,13.0,95,0.06,,,2.39,Wunderground v.1.15,2013-01-15 03:37:00,
2013-01-14 22:38:00,38.1,37.1,30.14,East,83,2.0,13.0,96,0.06,,,2.40,Wunderground v.1.15,2013-01-15 03:38:00,
2013-01-14 22:39:00,38.1,37.1,30.15,ENE,60,1.0,13.0,96,0.06,,,2.40,Wunderground v.1.15,2013-01-15 03:39:00,
2013-01-14 22:42:00,38.1,37.1,30.15,ESE,102,3.0,7.0,96,0.06,,,2.40,Wunderground v.1.15,2013-01-15 03:42:00,
2013-01-14 22:43:00,38.1,37.1,30.15,ESE,102,3.0,7.0,96,0.06,,,2.40,Wunderground v.1.15,2013-01-15 03:43:00,
2013-01-14 22:45:00,38.1,37.1,30.15,ESE,106,2.0,7.0,96,0.06,,,2.40,Wunderground v.1.15,2013-01-15 03:45:00,
2013-01-14 22:47:00,38.1,37.1,30.15,ENE,65,2.0,7.0,96,0.06,,,2.40,Wunderground v.1.15,2013-01-15 03:47:00,
2013-01-14 22:48:00,38.1,37.1,30.15,ENE,65,3.0,7.0,96,0.06,,,2.40,Wunderground v.1.15,2013-01-15 03:48:00,
2013-01-14 22:49:00,38.1,37.1,30.15,East,87,2.0,7.0,96,0.05,,,2.40,Wunderground v.1.15,2013-01-15 03:49:00,
2013-01-14 22:50:00,38.1,37.1,30.15,East,96,4.0,4.0,96,0.05,,,2.40,Wunderground v.1.15,2013-01-15 03:50:00,
2013-01-14 22:52:00,38.1,37.1,30.14,NNE,25,7.0,7.0,96,0.04,,,2.40,Wunderground v.1.15,2013-01-15 03:52:00,
2013-01-14 22:53:00,38.2,37.2,30.14,NE,48,3.0,7.0,96,0.04,,,2.40,Wunderground v.1.15,2013-01-15 03:53:00,
2013-01-14 22:54:00,38.2,37.2,30.13,ENE,77,2.0,7.0,96,0.04,,,2.41,Wunderground v.1.15,2013-01-15 03:54:00,
2013-01-14 22:55:00,38.2,37.2,30.13,East,98,4.0,7.0,96,0.04,,,2.41,Wunderground v.1.15,2013-01-15 03:55:00,
2013-01-14 22:57:00,38.2,37.2,30.13,NE,46,5.0,7.0,96,0.04,,,2.41,Wunderground v.1.15,2013-01-15 03:57:00,
2013-01-14 22:58:00,38.2,37.2,30.14,ENE,65,4.0,7.0,96,0.04,,,2.41,Wunderground v.1.15,2013-01-15 03:58:00,
2013-01-14 22:59:00,38.2,37.2,30.13,East,86,4.0,7.0,96,0.04,,,2.41,Wunderground v.1.15,2013-01-15 03:59:00,
2013-01-14 23:00:00,38.2,37.2,30.13,ENE,74,3.0,4.0,96,0.04,,,2.41,Wunderground v.1.15,2013-01-15 04:00:00,
2013-01-14 23:02:00,38.3,37.3,30.14,NNE,14,5.0,10.0,96,0.04,,,2.41,Wunderground v.1.15,2013-01-15 04:02:00,
2013-01-14 23:03:00,38.3,37.3,30.14,ENE,67,4.0,10.0,96,0.04,,,2.41,Wunderground v.1.15,2013-01-15 04:03:00,
2013-01-14 23:05:00,38.3,37.3,30.14,NE,36,5.0,10.0,96,0.04,,,2.41,Wunderground v.1.15,2013-01-15 04:05:00,
2013-01-14 23:07:00,38.3,37.3,30.15,East,96,2.0,10.0,96,0.04,,,2.41,Wunderground v.1.15,2013-01-15 04:07:00,
2013-01-14 23:08:00,38.3,37.3,30.15,NE,41,4.0,10.0,96,0.04,,,2.41,Wunderground v.1.15,2013-01-15 04:08:00,
2013-01-14 23:10:00,38.3,37.3,30.15,NE,36,3.0,4.0,96,0.04,,,2.41,Wunderground v.1.15,2013-01-15 04:10:00,
2013-01-14 23:12:00,38.3,37.3,30.15,East,92,2.0,5.0,96,0.00,,,2.41,Wunderground v.1.15,2013-01-15 04:12:00,
2013-01-14 23:14:00,38.4,37.4,30.16,East,92,1.0,5.0,96,0.00,,,2.41,Wunderground v.1.15,2013-01-15 04:14:00,
2013-01-14 23:15:00,38.4,37.4,30.16,East,92,0.0,5.0,96,0.00,,,2.41,Wunderground v.1.15,2013-01-15 04:15:00,
2013-01-14 23:16:00,38.4,37.4,30.16,East,90,3.0,5.0,96,0.00,,,2.42,Wunderground v.1.15,2013-01-15 04:16:00,
2013-01-14 23:17:00,38.4,37.4,30.16,East,85,3.0,5.0,96,0.00,,,2.42,Wunderground v.1.15,2013-01-15 04:17:00,
2013-01-14 23:20:00,38.4,37.4,30.15,ENE,71,4.0,4.0,96,0.20,,,2.43,Wunderground v.1.15,2013-01-15 04:20:00,
2013-01-14 23:21:00,38.4,37.4,30.16,ENE,62,4.0,6.0,96,0.22,,,2.44,Wunderground v.1.15,2013-01-15 04:21:00,
2013-01-14 23:23:00,38.4,37.4,30.16,ENE,67,2.0,7.0,96,0.39,,,2.45,Wunderground v.1.15,2013-01-15 04:23:00,
2013-01-14 23:25:00,38.4,37.4,30.16,ENE,67,1.0,7.0,96,0.29,,,2.46,Wunderground v.1.15,2013-01-15 04:25:00,
2013-01-14 23:26:00,38.4,37.4,30.16,ENE,67,1.0,7.0,96,0.29,,,2.46,Wunderground v.1.15,2013-01-15 04:26:00,
2013-01-14 23:28:00,38.4,37.4,30.16,ENE,67,0.0,7.0,96,0.31,,,2.47,Wunderground v.1.15,2013-01-15 04:28:00,
2013-01-14 23:30:00,38.4,37.4,30.16,NE,36,4.0,7.0,96,0.18,,,2.48,Wunderground v.1.15,2013-01-15 04:30:00,
2013-01-14 23:31:00,38.4,37.4,30.16,NE,50,1.0,7.0,96,0.18,,,2.48,Wunderground v.1.15,2013-01-15 04:31:00,
2013-01-14 23:33:00,38.4,37.4,30.16,East,92,3.0,7.0,96,0.21,,,2.49,Wunderground v.1.15,2013-01-15 04:33:00,
2013-01-14 23:35:00,38.4,37.4,30.15,East,91,1.0,7.0,96,0.21,,,2.49,Wunderground v.1.15,2013-01-15 04:35:00,
2013-01-14 23:36:00,38.3,37.3,30.15,East,91,0.0,7.0,96,0.17,,,2.49,Wunderground v.1.15,2013-01-15 04:36:00,
2013-01-14 23:39:00,38.3,37.3,30.15,ENE,74,2.0,7.0,96,0.10,,,2.49,Wunderground v.1.15,2013-01-15 04:39:00,
2013-01-14 23:40:00,38.4,37.4,30.15,ENE,74,0.0,3.0,96,0.07,,,2.49,Wunderground v.1.15,2013-01-15 04:40:00,
2013-01-14 23:41:00,38.3,37.3,30.15,East,86,2.0,4.0,96,0.07,,,2.49,Wunderground v.1.15,2013-01-15 04:41:00,
2013-01-14 23:44:00,38.4,37.4,30.14,ENE,66,2.0,5.0,96,0.05,,,2.49,Wunderground v.1.15,2013-01-15 04:44:00,
2013-01-14 23:45:00,38.4,37.4,30.14,East,84,2.0,7.0,96,0.05,,,2.50,Wunderground v.1.15,2013-01-15 04:45:00,
2013-01-14 23:46:00,38.4,37.4,30.14,East,84,1.0,7.0,96,0.05,,,2.50,Wunderground v.1.15,2013-01-15 04:46:00,
2013-01-14 23:49:00,38.4,37.4,30.13,NNE,32,2.0,7.0,96,0.05,,,2.50,Wunderground v.1.15,2013-01-15 04:49:00,
2013-01-14 23:51:00,38.4,37.4,30.13,ENE,61,2.0,6.0,96,0.05,,,2.50,Wunderground v.1.15,2013-01-15 04:51:00,
2013-01-14 23:54:00,38.5,37.5,30.12,North,355,5.0,7.0,96,0.06,,,2.51,Wunderground v.1.15,2013-01-15 04:54:00,
2013-01-14 23:56:00,38.5,37.5,30.12,East,83,3.0,9.0,96,0.06,,,2.51,Wunderground v.1.15,2013-01-15 04:56:00,
2013-01-14 23:57:00,38.5,37.5,30.12,ENE,69,3.0,9.0,96,0.06,,,2.51,Wunderground v.1.15,2013-01-15 04:57:00,